<?xml version="1.0" encoding="UTF-8" standalone="no" ?>
<gpx xmlns="http://www.topografix.com/GPX/1/1" creator="www.plotaroute.com" version="1.1"  xmlns:xsi="http://www.w3.org/2001/XMLSchema-instance" xsi:schemaLocation="http://www.topografix.com/GPX/1/1 http://www.topografix.com/GPX/1/1/gpx.xsd">
<metadata>
<desc>Route created on plotaroute.com</desc>
</metadata>
<wpt lat="31.66925" lon="34.942369">
<time>2021-02-10T01:23:33Z</time>
<name>Поверните </name>
<cmt>Поверните налево на 3544</cmt>
<desc>Поверните налево на 3544</desc>
<sym>Left</sym>
</wpt>
<wpt lat="31.671965" lon="34.935596">
<time>2021-02-10T01:25:59Z</time>
<name>Поверните </name>
<cmt>Поверните направо на 38</cmt>
<desc>Поверните направо на 38</desc>
<sym>Right</sym>
</wpt>
<wpt lat="31.672189" lon="34.935092">
<time>2021-02-10T01:26:15Z</time>
<name>Резко пове</name>
<cmt>Резко поверните направо</cmt>
<desc>Резко поверните направо</desc>
<sym>Right_sharp</sym>
</wpt>
<wpt lat="31.675945" lon="34.930433">
<time>2021-02-10T01:28:08Z</time>
<name>Плавно пов</name>
<cmt>Плавно поверните направо</cmt>
<desc>Плавно поверните направо</desc>
<sym>Right_slight</sym>
</wpt>
<wpt lat="31.677601" lon="34.930605">
<time>2021-02-10T01:28:42Z</time>
<name>Поверните </name>
<cmt>Поверните налево</cmt>
<desc>Поверните налево</desc>
<sym>Left</sym>
</wpt>
<wpt lat="31.677606" lon="34.930235">
<time>2021-02-10T01:28:49Z</time>
<name>Поверните </name>
<cmt>Поверните направо</cmt>
<desc>Поверните направо</desc>
<sym>Right</sym>
</wpt>
<wpt lat="31.677653" lon="34.930237">
<time>2021-02-10T01:28:49Z</time>
<name>FINISH</name>
<cmt>FINISH</cmt>
<desc>FINISH</desc>
<sym>Flag, Blue</sym>
</wpt>
<trk>
<name>Britania-adulam-light30km</name>
<trkseg>
<trkpt lat="31.677598" lon="34.929872">
<ele>321</ele>
<time>2021-02-10T00:00:00Z</time></trkpt>
<trkpt lat="31.67769" lon="34.928863">
<ele>332</ele>
<time>2021-02-10T00:00:17Z</time></trkpt>
<trkpt lat="31.677598" lon="34.927962">
<ele>334</ele>
<time>2021-02-10T00:00:33Z</time></trkpt>
<trkpt lat="31.677671" lon="34.92764">
<ele>332</ele>
<time>2021-02-10T00:00:38Z</time></trkpt>
<trkpt lat="31.67769" lon="34.927254">
<ele>328</ele>
<time>2021-02-10T00:00:45Z</time></trkpt>
<trkpt lat="31.677051" lon="34.927404">
<ele>332</ele>
<time>2021-02-10T00:00:58Z</time></trkpt>
<trkpt lat="31.676247" lon="34.926996">
<ele>335</ele>
<time>2021-02-10T00:01:16Z</time></trkpt>
<trkpt lat="31.67623" lon="34.927">
<ele>335</ele>
<time>2021-02-10T00:01:16Z</time></trkpt>
<trkpt lat="31.67615" lon="34.92688">
<ele>335</ele>
<time>2021-02-10T00:01:19Z</time></trkpt>
<trkpt lat="31.676" lon="34.9267">
<ele>335</ele>
<time>2021-02-10T00:01:23Z</time></trkpt>
<trkpt lat="31.67584" lon="34.9266">
<ele>336</ele>
<time>2021-02-10T00:01:27Z</time></trkpt>
<trkpt lat="31.67567" lon="34.92652">
<ele>336</ele>
<time>2021-02-10T00:01:30Z</time></trkpt>
<trkpt lat="31.67549" lon="34.92647">
<ele>336</ele>
<time>2021-02-10T00:01:34Z</time></trkpt>
<trkpt lat="31.67542" lon="34.92646">
<ele>336</ele>
<time>2021-02-10T00:01:35Z</time></trkpt>
<trkpt lat="31.6751" lon="34.92639">
<ele>336</ele>
<time>2021-02-10T00:01:42Z</time></trkpt>
<trkpt lat="31.67489" lon="34.92636">
<ele>337</ele>
<time>2021-02-10T00:01:46Z</time></trkpt>
<trkpt lat="31.67469" lon="34.92625">
<ele>337</ele>
<time>2021-02-10T00:01:51Z</time></trkpt>
<trkpt lat="31.67441" lon="34.92599">
<ele>335</ele>
<time>2021-02-10T00:01:58Z</time></trkpt>
<trkpt lat="31.67419" lon="34.9257">
<ele>332</ele>
<time>2021-02-10T00:02:04Z</time></trkpt>
<trkpt lat="31.67408" lon="34.92559">
<ele>333</ele>
<time>2021-02-10T00:02:07Z</time></trkpt>
<trkpt lat="31.674" lon="34.92545">
<ele>332</ele>
<time>2021-02-10T00:02:10Z</time></trkpt>
<trkpt lat="31.67397" lon="34.92537">
<ele>332</ele>
<time>2021-02-10T00:02:12Z</time></trkpt>
<trkpt lat="31.67391" lon="34.92486">
<ele>326</ele>
<time>2021-02-10T00:02:20Z</time></trkpt>
<trkpt lat="31.67387" lon="34.92474">
<ele>325</ele>
<time>2021-02-10T00:02:23Z</time></trkpt>
<trkpt lat="31.67381" lon="34.92463">
<ele>325</ele>
<time>2021-02-10T00:02:25Z</time></trkpt>
<trkpt lat="31.67373" lon="34.92455">
<ele>325</ele>
<time>2021-02-10T00:02:27Z</time></trkpt>
<trkpt lat="31.67357" lon="34.92447">
<ele>325</ele>
<time>2021-02-10T00:02:30Z</time></trkpt>
<trkpt lat="31.67318" lon="34.92444">
<ele>327</ele>
<time>2021-02-10T00:02:38Z</time></trkpt>
<trkpt lat="31.67317" lon="34.92443">
<ele>327</ele>
<time>2021-02-10T00:02:38Z</time></trkpt>
<trkpt lat="31.67205" lon="34.92459">
<ele>330</ele>
<time>2021-02-10T00:03:01Z</time></trkpt>
<trkpt lat="31.67166" lon="34.92482">
<ele>332</ele>
<time>2021-02-10T00:03:10Z</time></trkpt>
<trkpt lat="31.67166" lon="34.92485">
<ele>332</ele>
<time>2021-02-10T00:03:10Z</time></trkpt>
<trkpt lat="31.67162" lon="34.92515">
<ele>334</ele>
<time>2021-02-10T00:03:15Z</time></trkpt>
<trkpt lat="31.67174" lon="34.92575">
<ele>338</ele>
<time>2021-02-10T00:03:26Z</time></trkpt>
<trkpt lat="31.6719" lon="34.92598">
<ele>343</ele>
<time>2021-02-10T00:03:31Z</time></trkpt>
<trkpt lat="31.67193" lon="34.92607">
<ele>344</ele>
<time>2021-02-10T00:03:33Z</time></trkpt>
<trkpt lat="31.67193" lon="34.92606">
<ele>344</ele>
<time>2021-02-10T00:03:33Z</time></trkpt>
<trkpt lat="31.67193" lon="34.92608">
<ele>344</ele>
<time>2021-02-10T00:03:33Z</time></trkpt>
<trkpt lat="31.67189" lon="34.92628">
<ele>345</ele>
<time>2021-02-10T00:03:37Z</time></trkpt>
<trkpt lat="31.6718" lon="34.92645">
<ele>344</ele>
<time>2021-02-10T00:03:40Z</time></trkpt>
<trkpt lat="31.6717" lon="34.9266">
<ele>342</ele>
<time>2021-02-10T00:03:43Z</time></trkpt>
<trkpt lat="31.6717" lon="34.92661">
<ele>342</ele>
<time>2021-02-10T00:03:44Z</time></trkpt>
<trkpt lat="31.67157" lon="34.92658">
<ele>341</ele>
<time>2021-02-10T00:03:46Z</time></trkpt>
<trkpt lat="31.6713" lon="34.92648">
<ele>338</ele>
<time>2021-02-10T00:03:52Z</time></trkpt>
<trkpt lat="31.67111" lon="34.92619">
<ele>333</ele>
<time>2021-02-10T00:03:58Z</time></trkpt>
<trkpt lat="31.67088" lon="34.926">
<ele>327</ele>
<time>2021-02-10T00:04:04Z</time></trkpt>
<trkpt lat="31.67003" lon="34.92583">
<ele>320</ele>
<time>2021-02-10T00:04:21Z</time></trkpt>
<trkpt lat="31.66932" lon="34.92599">
<ele>324</ele>
<time>2021-02-10T00:04:36Z</time></trkpt>
<trkpt lat="31.66903" lon="34.92622">
<ele>324</ele>
<time>2021-02-10T00:04:43Z</time></trkpt>
<trkpt lat="31.66905" lon="34.92619">
<ele>324</ele>
<time>2021-02-10T00:04:43Z</time></trkpt>
<trkpt lat="31.66903" lon="34.92622">
<ele>324</ele>
<time>2021-02-10T00:04:44Z</time></trkpt>
<trkpt lat="31.66904" lon="34.92606">
<ele>325</ele>
<time>2021-02-10T00:04:47Z</time></trkpt>
<trkpt lat="31.66872" lon="34.92384">
<ele>334</ele>
<time>2021-02-10T00:05:25Z</time></trkpt>
<trkpt lat="31.66865" lon="34.92325">
<ele>338</ele>
<time>2021-02-10T00:05:35Z</time></trkpt>
<trkpt lat="31.66864" lon="34.92202">
<ele>340</ele>
<time>2021-02-10T00:05:56Z</time></trkpt>
<trkpt lat="31.66862" lon="34.92185">
<ele>340</ele>
<time>2021-02-10T00:05:59Z</time></trkpt>
<trkpt lat="31.66856" lon="34.92161">
<ele>341</ele>
<time>2021-02-10T00:06:03Z</time></trkpt>
<trkpt lat="31.66845" lon="34.92139">
<ele>341</ele>
<time>2021-02-10T00:06:08Z</time></trkpt>
<trkpt lat="31.66829" lon="34.92116">
<ele>341</ele>
<time>2021-02-10T00:06:13Z</time></trkpt>
<trkpt lat="31.66818" lon="34.92105">
<ele>340</ele>
<time>2021-02-10T00:06:16Z</time></trkpt>
<trkpt lat="31.66805" lon="34.92097">
<ele>339</ele>
<time>2021-02-10T00:06:19Z</time></trkpt>
<trkpt lat="31.66789" lon="34.92097">
<ele>340</ele>
<time>2021-02-10T00:06:22Z</time></trkpt>
<trkpt lat="31.667796" lon="34.921471">
<ele>348</ele>
<time>2021-02-10T00:06:30Z</time></trkpt>
<trkpt lat="31.667532" lon="34.921836">
<ele>355</ele>
<time>2021-02-10T00:06:39Z</time></trkpt>
<trkpt lat="31.667322" lon="34.922013">
<ele>358</ele>
<time>2021-02-10T00:06:44Z</time></trkpt>
<trkpt lat="31.667203" lon="34.922077">
<ele>360</ele>
<time>2021-02-10T00:06:46Z</time></trkpt>
<trkpt lat="31.666984" lon="34.922104">
<ele>361</ele>
<time>2021-02-10T00:06:51Z</time></trkpt>
<trkpt lat="31.666682" lon="34.922007">
<ele>360</ele>
<time>2021-02-10T00:06:57Z</time></trkpt>
<trkpt lat="31.666678" lon="34.922082">
<ele>361</ele>
<time>2021-02-10T00:06:58Z</time></trkpt>
<trkpt lat="31.666755" lon="34.9222">
<ele>363</ele>
<time>2021-02-10T00:07:01Z</time></trkpt>
<trkpt lat="31.667075" lon="34.922367">
<ele>365</ele>
<time>2021-02-10T00:07:08Z</time></trkpt>
<trkpt lat="31.667372" lon="34.922426">
<ele>365</ele>
<time>2021-02-10T00:07:14Z</time></trkpt>
<trkpt lat="31.6676" lon="34.922361">
<ele>362</ele>
<time>2021-02-10T00:07:19Z</time></trkpt>
<trkpt lat="31.66771" lon="34.92242">
<ele>361</ele>
<time>2021-02-10T00:07:21Z</time></trkpt>
<trkpt lat="31.667719" lon="34.922554">
<ele>362</ele>
<time>2021-02-10T00:07:23Z</time></trkpt>
<trkpt lat="31.66765" lon="34.922721">
<ele>363</ele>
<time>2021-02-10T00:07:27Z</time></trkpt>
<trkpt lat="31.66745" lon="34.92288">
<ele>365</ele>
<time>2021-02-10T00:07:31Z</time></trkpt>
<trkpt lat="31.66739" lon="34.92291">
<ele>364</ele>
<time>2021-02-10T00:07:33Z</time></trkpt>
<trkpt lat="31.66723" lon="34.92294">
<ele>364</ele>
<time>2021-02-10T00:07:36Z</time></trkpt>
<trkpt lat="31.66707" lon="34.9229">
<ele>364</ele>
<time>2021-02-10T00:07:39Z</time></trkpt>
<trkpt lat="31.66652" lon="34.92267">
<ele>366</ele>
<time>2021-02-10T00:07:51Z</time></trkpt>
<trkpt lat="31.66637" lon="34.92265">
<ele>366</ele>
<time>2021-02-10T00:07:54Z</time></trkpt>
<trkpt lat="31.66613" lon="34.92269">
<ele>366</ele>
<time>2021-02-10T00:07:59Z</time></trkpt>
<trkpt lat="31.66581" lon="34.92269">
<ele>366</ele>
<time>2021-02-10T00:08:05Z</time></trkpt>
<trkpt lat="31.66574" lon="34.92243">
<ele>367</ele>
<time>2021-02-10T00:08:10Z</time></trkpt>
<trkpt lat="31.66578" lon="34.92207">
<ele>365</ele>
<time>2021-02-10T00:08:16Z</time></trkpt>
<trkpt lat="31.66584" lon="34.92182">
<ele>364</ele>
<time>2021-02-10T00:08:21Z</time></trkpt>
<trkpt lat="31.66601" lon="34.92173">
<ele>362</ele>
<time>2021-02-10T00:08:24Z</time></trkpt>
<trkpt lat="31.66658" lon="34.92186">
<ele>359</ele>
<time>2021-02-10T00:08:36Z</time></trkpt>
<trkpt lat="31.66667" lon="34.92196">
<ele>360</ele>
<time>2021-02-10T00:08:38Z</time></trkpt>
<trkpt lat="31.666979" lon="34.922061">
<ele>360</ele>
<time>2021-02-10T00:08:45Z</time></trkpt>
<trkpt lat="31.667194" lon="34.922029">
<ele>359</ele>
<time>2021-02-10T00:08:49Z</time></trkpt>
<trkpt lat="31.667509" lon="34.921798">
<ele>354</ele>
<time>2021-02-10T00:08:57Z</time></trkpt>
<trkpt lat="31.667755" lon="34.921476">
<ele>348</ele>
<time>2021-02-10T00:09:04Z</time></trkpt>
<trkpt lat="31.667847" lon="34.920983">
<ele>340</ele>
<time>2021-02-10T00:09:13Z</time></trkpt>
<trkpt lat="31.667669" lon="34.921321">
<ele>346</ele>
<time>2021-02-10T00:09:19Z</time></trkpt>
<trkpt lat="31.667427" lon="34.921648">
<ele>352</ele>
<time>2021-02-10T00:09:27Z</time></trkpt>
<trkpt lat="31.667102" lon="34.921814">
<ele>356</ele>
<time>2021-02-10T00:09:34Z</time></trkpt>
<trkpt lat="31.666787" lon="34.921659">
<ele>355</ele>
<time>2021-02-10T00:09:41Z</time></trkpt>
<trkpt lat="31.66633" lon="34.92122">
<ele>347</ele>
<time>2021-02-10T00:09:53Z</time></trkpt>
<trkpt lat="31.66603" lon="34.9211">
<ele>347</ele>
<time>2021-02-10T00:09:59Z</time></trkpt>
<trkpt lat="31.66545" lon="34.92099">
<ele>345</ele>
<time>2021-02-10T00:10:11Z</time></trkpt>
<trkpt lat="31.66522" lon="34.9209">
<ele>344</ele>
<time>2021-02-10T00:10:16Z</time></trkpt>
<trkpt lat="31.6649" lon="34.92083">
<ele>341</ele>
<time>2021-02-10T00:10:22Z</time></trkpt>
<trkpt lat="31.66478" lon="34.92086">
<ele>340</ele>
<time>2021-02-10T00:10:24Z</time></trkpt>
<trkpt lat="31.66471" lon="34.92091">
<ele>339</ele>
<time>2021-02-10T00:10:26Z</time></trkpt>
<trkpt lat="31.66466" lon="34.92099">
<ele>339</ele>
<time>2021-02-10T00:10:28Z</time></trkpt>
<trkpt lat="31.66464" lon="34.92108">
<ele>339</ele>
<time>2021-02-10T00:10:29Z</time></trkpt>
<trkpt lat="31.66465" lon="34.92118">
<ele>341</ele>
<time>2021-02-10T00:10:31Z</time></trkpt>
<trkpt lat="31.66492" lon="34.92189">
<ele>353</ele>
<time>2021-02-10T00:10:44Z</time></trkpt>
<trkpt lat="31.66491" lon="34.92189">
<ele>352</ele>
<time>2021-02-10T00:10:45Z</time></trkpt>
<trkpt lat="31.66486" lon="34.92216">
<ele>354</ele>
<time>2021-02-10T00:10:49Z</time></trkpt>
<trkpt lat="31.66467" lon="34.9222">
<ele>352</ele>
<time>2021-02-10T00:10:53Z</time></trkpt>
<trkpt lat="31.66397" lon="34.92214">
<ele>344</ele>
<time>2021-02-10T00:11:07Z</time></trkpt>
<trkpt lat="31.66387" lon="34.9221">
<ele>343</ele>
<time>2021-02-10T00:11:09Z</time></trkpt>
<trkpt lat="31.66361" lon="34.92196">
<ele>339</ele>
<time>2021-02-10T00:11:15Z</time></trkpt>
<trkpt lat="31.66351" lon="34.92194">
<ele>338</ele>
<time>2021-02-10T00:11:17Z</time></trkpt>
<trkpt lat="31.66319" lon="34.92202">
<ele>339</ele>
<time>2021-02-10T00:11:24Z</time></trkpt>
<trkpt lat="31.663" lon="34.92209">
<ele>340</ele>
<time>2021-02-10T00:11:28Z</time></trkpt>
<trkpt lat="31.66299" lon="34.92209">
<ele>340</ele>
<time>2021-02-10T00:11:28Z</time></trkpt>
<trkpt lat="31.66285" lon="34.92186">
<ele>339</ele>
<time>2021-02-10T00:11:33Z</time></trkpt>
<trkpt lat="31.66274" lon="34.92135">
<ele>335</ele>
<time>2021-02-10T00:11:42Z</time></trkpt>
<trkpt lat="31.66233" lon="34.92048">
<ele>337</ele>
<time>2021-02-10T00:11:59Z</time></trkpt>
<trkpt lat="31.66225" lon="34.92019">
<ele>336</ele>
<time>2021-02-10T00:12:04Z</time></trkpt>
<trkpt lat="31.66202" lon="34.91983">
<ele>338</ele>
<time>2021-02-10T00:12:11Z</time></trkpt>
<trkpt lat="31.66196" lon="34.9197">
<ele>337</ele>
<time>2021-02-10T00:12:14Z</time></trkpt>
<trkpt lat="31.66195" lon="34.9197">
<ele>337</ele>
<time>2021-02-10T00:12:14Z</time></trkpt>
<trkpt lat="31.66196" lon="34.9197">
<ele>337</ele>
<time>2021-02-10T00:12:14Z</time></trkpt>
<trkpt lat="31.66195" lon="34.9197">
<ele>337</ele>
<time>2021-02-10T00:12:15Z</time></trkpt>
<trkpt lat="31.66188" lon="34.91964">
<ele>338</ele>
<time>2021-02-10T00:12:16Z</time></trkpt>
<trkpt lat="31.66157" lon="34.91951">
<ele>339</ele>
<time>2021-02-10T00:12:23Z</time></trkpt>
<trkpt lat="31.66147" lon="34.91951">
<ele>339</ele>
<time>2021-02-10T00:12:25Z</time></trkpt>
<trkpt lat="31.6614" lon="34.91959">
<ele>339</ele>
<time>2021-02-10T00:12:27Z</time></trkpt>
<trkpt lat="31.66148" lon="34.91984">
<ele>344</ele>
<time>2021-02-10T00:12:31Z</time></trkpt>
<trkpt lat="31.66151" lon="34.92011">
<ele>348</ele>
<time>2021-02-10T00:12:36Z</time></trkpt>
<trkpt lat="31.66154" lon="34.92066">
<ele>355</ele>
<time>2021-02-10T00:12:46Z</time></trkpt>
<trkpt lat="31.66154" lon="34.92065">
<ele>355</ele>
<time>2021-02-10T00:12:46Z</time></trkpt>
<trkpt lat="31.66142" lon="34.92094">
<ele>359</ele>
<time>2021-02-10T00:12:51Z</time></trkpt>
<trkpt lat="31.66131" lon="34.9211">
<ele>362</ele>
<time>2021-02-10T00:12:55Z</time></trkpt>
<trkpt lat="31.6613" lon="34.92112">
<ele>362</ele>
<time>2021-02-10T00:12:55Z</time></trkpt>
<trkpt lat="31.66107" lon="34.92117">
<ele>365</ele>
<time>2021-02-10T00:13:00Z</time></trkpt>
<trkpt lat="31.66015" lon="34.92126">
<ele>374</ele>
<time>2021-02-10T00:13:18Z</time></trkpt>
<trkpt lat="31.65973" lon="34.92108">
<ele>373</ele>
<time>2021-02-10T00:13:27Z</time></trkpt>
<trkpt lat="31.6593" lon="34.92094">
<ele>374</ele>
<time>2021-02-10T00:13:36Z</time></trkpt>
<trkpt lat="31.65913" lon="34.92098">
<ele>375</ele>
<time>2021-02-10T00:13:40Z</time></trkpt>
<trkpt lat="31.65903" lon="34.92108">
<ele>375</ele>
<time>2021-02-10T00:13:42Z</time></trkpt>
<trkpt lat="31.65893" lon="34.92122">
<ele>375</ele>
<time>2021-02-10T00:13:45Z</time></trkpt>
<trkpt lat="31.6587" lon="34.92175">
<ele>376</ele>
<time>2021-02-10T00:13:56Z</time></trkpt>
<trkpt lat="31.65804" lon="34.92245">
<ele>366</ele>
<time>2021-02-10T00:14:13Z</time></trkpt>
<trkpt lat="31.65785" lon="34.92266">
<ele>362</ele>
<time>2021-02-10T00:14:19Z</time></trkpt>
<trkpt lat="31.65779" lon="34.92271">
<ele>360</ele>
<time>2021-02-10T00:14:20Z</time></trkpt>
<trkpt lat="31.65772" lon="34.92273">
<ele>359</ele>
<time>2021-02-10T00:14:21Z</time></trkpt>
<trkpt lat="31.65732" lon="34.92264">
<ele>358</ele>
<time>2021-02-10T00:14:30Z</time></trkpt>
<trkpt lat="31.65708" lon="34.92262">
<ele>358</ele>
<time>2021-02-10T00:14:34Z</time></trkpt>
<trkpt lat="31.65679" lon="34.92252">
<ele>360</ele>
<time>2021-02-10T00:14:41Z</time></trkpt>
<trkpt lat="31.65643" lon="34.92229">
<ele>359</ele>
<time>2021-02-10T00:14:49Z</time></trkpt>
<trkpt lat="31.65624" lon="34.9222">
<ele>360</ele>
<time>2021-02-10T00:14:53Z</time></trkpt>
<trkpt lat="31.65495" lon="34.9218">
<ele>371</ele>
<time>2021-02-10T00:15:20Z</time></trkpt>
<trkpt lat="31.65442" lon="34.92155">
<ele>377</ele>
<time>2021-02-10T00:15:31Z</time></trkpt>
<trkpt lat="31.65437" lon="34.92155">
<ele>377</ele>
<time>2021-02-10T00:15:32Z</time></trkpt>
<trkpt lat="31.6543" lon="34.92159">
<ele>378</ele>
<time>2021-02-10T00:15:34Z</time></trkpt>
<trkpt lat="31.654217" lon="34.921669">
<ele>379</ele>
<time>2021-02-10T00:15:36Z</time></trkpt>
<trkpt lat="31.65383" lon="34.92096">
<ele>377</ele>
<time>2021-02-10T00:15:50Z</time></trkpt>
<trkpt lat="31.65403" lon="34.92048">
<ele>377</ele>
<time>2021-02-10T00:15:59Z</time></trkpt>
<trkpt lat="31.65404" lon="34.92048">
<ele>377</ele>
<time>2021-02-10T00:15:59Z</time></trkpt>
<trkpt lat="31.65367" lon="34.91876">
<ele>379</ele>
<time>2021-02-10T00:16:30Z</time></trkpt>
<trkpt lat="31.65367" lon="34.91875">
<ele>379</ele>
<time>2021-02-10T00:16:30Z</time></trkpt>
<trkpt lat="31.653199" lon="34.918499">
<ele>378</ele>
<time>2021-02-10T00:16:40Z</time></trkpt>
<trkpt lat="31.649071" lon="34.917008">
<ele>380</ele>
<time>2021-02-10T00:18:07Z</time></trkpt>
<trkpt lat="31.64729" lon="34.916182">
<ele>379</ele>
<time>2021-02-10T00:18:45Z</time></trkpt>
<trkpt lat="31.647226" lon="34.916015">
<ele>377</ele>
<time>2021-02-10T00:18:48Z</time></trkpt>
<trkpt lat="31.64686" lon="34.91624">
<ele>376</ele>
<time>2021-02-10T00:18:57Z</time></trkpt>
<trkpt lat="31.64674" lon="34.91629">
<ele>376</ele>
<time>2021-02-10T00:18:59Z</time></trkpt>
<trkpt lat="31.646367" lon="34.916348">
<ele>376</ele>
<time>2021-02-10T00:19:07Z</time></trkpt>
<trkpt lat="31.646111" lon="34.9163">
<ele>374</ele>
<time>2021-02-10T00:19:12Z</time></trkpt>
<trkpt lat="31.645655" lon="34.916305">
<ele>374</ele>
<time>2021-02-10T00:19:21Z</time></trkpt>
<trkpt lat="31.645554" lon="34.916342">
<ele>375</ele>
<time>2021-02-10T00:19:23Z</time></trkpt>
<trkpt lat="31.645472" lon="34.916509">
<ele>379</ele>
<time>2021-02-10T00:19:26Z</time></trkpt>
<trkpt lat="31.645289" lon="34.916482">
<ele>378</ele>
<time>2021-02-10T00:19:30Z</time></trkpt>
<trkpt lat="31.645093" lon="34.916471">
<ele>379</ele>
<time>2021-02-10T00:19:34Z</time></trkpt>
<trkpt lat="31.644856" lon="34.916412">
<ele>378</ele>
<time>2021-02-10T00:19:39Z</time></trkpt>
<trkpt lat="31.644764" lon="34.916332">
<ele>376</ele>
<time>2021-02-10T00:19:41Z</time></trkpt>
<trkpt lat="31.644641" lon="34.916294">
<ele>376</ele>
<time>2021-02-10T00:19:44Z</time></trkpt>
<trkpt lat="31.64444" lon="34.916283">
<ele>376</ele>
<time>2021-02-10T00:19:48Z</time></trkpt>
<trkpt lat="31.644161" lon="34.916165">
<ele>375</ele>
<time>2021-02-10T00:19:54Z</time></trkpt>
<trkpt lat="31.643814" lon="34.916096">
<ele>376</ele>
<time>2021-02-10T00:20:01Z</time></trkpt>
<trkpt lat="31.643618" lon="34.916042">
<ele>377</ele>
<time>2021-02-10T00:20:05Z</time></trkpt>
<trkpt lat="31.643399" lon="34.915924">
<ele>378</ele>
<time>2021-02-10T00:20:10Z</time></trkpt>
<trkpt lat="31.643285" lon="34.915913">
<ele>379</ele>
<time>2021-02-10T00:20:12Z</time></trkpt>
<trkpt lat="31.642787" lon="34.915908">
<ele>382</ele>
<time>2021-02-10T00:20:22Z</time></trkpt>
<trkpt lat="31.642705" lon="34.915865">
<ele>383</ele>
<time>2021-02-10T00:20:24Z</time></trkpt>
<trkpt lat="31.642673" lon="34.915742">
<ele>383</ele>
<time>2021-02-10T00:20:26Z</time></trkpt>
<trkpt lat="31.642714" lon="34.915506">
<ele>382</ele>
<time>2021-02-10T00:20:30Z</time></trkpt>
<trkpt lat="31.642695" lon="34.915388">
<ele>382</ele>
<time>2021-02-10T00:20:32Z</time></trkpt>
<trkpt lat="31.642641" lon="34.915259">
<ele>382</ele>
<time>2021-02-10T00:20:34Z</time></trkpt>
<trkpt lat="31.642581" lon="34.915189">
<ele>382</ele>
<time>2021-02-10T00:20:36Z</time></trkpt>
<trkpt lat="31.642431" lon="34.91513">
<ele>383</ele>
<time>2021-02-10T00:20:39Z</time></trkpt>
<trkpt lat="31.642097" lon="34.915044">
<ele>384</ele>
<time>2021-02-10T00:20:46Z</time></trkpt>
<trkpt lat="31.641435" lon="34.914894">
<ele>386</ele>
<time>2021-02-10T00:21:00Z</time></trkpt>
<trkpt lat="31.640841" lon="34.914583">
<ele>387</ele>
<time>2021-02-10T00:21:13Z</time></trkpt>
<trkpt lat="31.640307" lon="34.914299">
<ele>389</ele>
<time>2021-02-10T00:21:24Z</time></trkpt>
<trkpt lat="31.64022" lon="34.914277">
<ele>389</ele>
<time>2021-02-10T00:21:26Z</time></trkpt>
<trkpt lat="31.640124" lon="34.914272">
<ele>389</ele>
<time>2021-02-10T00:21:28Z</time></trkpt>
<trkpt lat="31.639827" lon="34.914427">
<ele>390</ele>
<time>2021-02-10T00:21:35Z</time></trkpt>
<trkpt lat="31.639435" lon="34.914503">
<ele>390</ele>
<time>2021-02-10T00:21:43Z</time></trkpt>
<trkpt lat="31.639019" lon="34.914685">
<ele>389</ele>
<time>2021-02-10T00:21:51Z</time></trkpt>
<trkpt lat="31.63901" lon="34.91468">
<ele>389</ele>
<time>2021-02-10T00:21:52Z</time></trkpt>
<trkpt lat="31.63866" lon="34.91488">
<ele>388</ele>
<time>2021-02-10T00:21:59Z</time></trkpt>
<trkpt lat="31.63854" lon="34.91492">
<ele>387</ele>
<time>2021-02-10T00:22:02Z</time></trkpt>
<trkpt lat="31.638466" lon="34.914835">
<ele>386</ele>
<time>2021-02-10T00:22:04Z</time></trkpt>
<trkpt lat="31.638485" lon="34.914363">
<ele>384</ele>
<time>2021-02-10T00:22:12Z</time></trkpt>
<trkpt lat="31.638521" lon="34.914229">
<ele>384</ele>
<time>2021-02-10T00:22:15Z</time></trkpt>
<trkpt lat="31.638658" lon="34.914084">
<ele>382</ele>
<time>2021-02-10T00:22:18Z</time></trkpt>
<trkpt lat="31.638973" lon="34.913907">
<ele>381</ele>
<time>2021-02-10T00:22:25Z</time></trkpt>
<trkpt lat="31.639151" lon="34.913853">
<ele>381</ele>
<time>2021-02-10T00:22:29Z</time></trkpt>
<trkpt lat="31.639398" lon="34.913462">
<ele>375</ele>
<time>2021-02-10T00:22:37Z</time></trkpt>
<trkpt lat="31.639179" lon="34.91322">
<ele>366</ele>
<time>2021-02-10T00:22:43Z</time></trkpt>
<trkpt lat="31.639042" lon="34.912899">
<ele>357</ele>
<time>2021-02-10T00:22:49Z</time></trkpt>
<trkpt lat="31.639156" lon="34.912636">
<ele>351</ele>
<time>2021-02-10T00:22:54Z</time></trkpt>
<trkpt lat="31.639279" lon="34.912314">
<ele>346</ele>
<time>2021-02-10T00:23:00Z</time></trkpt>
<trkpt lat="31.63927" lon="34.912233">
<ele>344</ele>
<time>2021-02-10T00:23:02Z</time></trkpt>
<trkpt lat="31.639215" lon="34.912169">
<ele>342</ele>
<time>2021-02-10T00:23:03Z</time></trkpt>
<trkpt lat="31.639142" lon="34.912164">
<ele>341</ele>
<time>2021-02-10T00:23:05Z</time></trkpt>
<trkpt lat="31.63906" lon="34.912185">
<ele>342</ele>
<time>2021-02-10T00:23:07Z</time></trkpt>
<trkpt lat="31.638864" lon="34.912319">
<ele>344</ele>
<time>2021-02-10T00:23:11Z</time></trkpt>
<trkpt lat="31.638772" lon="34.912351">
<ele>344</ele>
<time>2021-02-10T00:23:13Z</time></trkpt>
<trkpt lat="31.638654" lon="34.912308">
<ele>343</ele>
<time>2021-02-10T00:23:15Z</time></trkpt>
<trkpt lat="31.638439" lon="34.912308">
<ele>343</ele>
<time>2021-02-10T00:23:20Z</time></trkpt>
<trkpt lat="31.638526" lon="34.91218">
<ele>342</ele>
<time>2021-02-10T00:23:23Z</time></trkpt>
<trkpt lat="31.638699" lon="34.91211">
<ele>341</ele>
<time>2021-02-10T00:23:26Z</time></trkpt>
<trkpt lat="31.6388" lon="34.911992">
<ele>339</ele>
<time>2021-02-10T00:23:29Z</time></trkpt>
<trkpt lat="31.638873" lon="34.911616">
<ele>333</ele>
<time>2021-02-10T00:23:36Z</time></trkpt>
<trkpt lat="31.639037" lon="34.911198">
<ele>326</ele>
<time>2021-02-10T00:23:44Z</time></trkpt>
<trkpt lat="31.639234" lon="34.910731">
<ele>319</ele>
<time>2021-02-10T00:23:52Z</time></trkpt>
<trkpt lat="31.639316" lon="34.910463">
<ele>318</ele>
<time>2021-02-10T00:23:57Z</time></trkpt>
<trkpt lat="31.639361" lon="34.910222">
<ele>317</ele>
<time>2021-02-10T00:24:01Z</time></trkpt>
<trkpt lat="31.639412" lon="34.9099">
<ele>316</ele>
<time>2021-02-10T00:24:07Z</time></trkpt>
<trkpt lat="31.639457" lon="34.909396">
<ele>312</ele>
<time>2021-02-10T00:24:16Z</time></trkpt>
<trkpt lat="31.639444" lon="34.909197">
<ele>311</ele>
<time>2021-02-10T00:24:19Z</time></trkpt>
<trkpt lat="31.639448" lon="34.908457">
<ele>306</ele>
<time>2021-02-10T00:24:32Z</time></trkpt>
<trkpt lat="31.639416" lon="34.907947">
<ele>303</ele>
<time>2021-02-10T00:24:40Z</time></trkpt>
<trkpt lat="31.639371" lon="34.907491">
<ele>299</ele>
<time>2021-02-10T00:24:48Z</time></trkpt>
<trkpt lat="31.639256" lon="34.906746">
<ele>295</ele>
<time>2021-02-10T00:25:01Z</time></trkpt>
<trkpt lat="31.639279" lon="34.90637">
<ele>294</ele>
<time>2021-02-10T00:25:08Z</time></trkpt>
<trkpt lat="31.639366" lon="34.905759">
<ele>292</ele>
<time>2021-02-10T00:25:18Z</time></trkpt>
<trkpt lat="31.63948" lon="34.905238">
<ele>291</ele>
<time>2021-02-10T00:25:27Z</time></trkpt>
<trkpt lat="31.639622" lon="34.904825">
<ele>289</ele>
<time>2021-02-10T00:25:35Z</time></trkpt>
<trkpt lat="31.639951" lon="34.903967">
<ele>283</ele>
<time>2021-02-10T00:25:51Z</time></trkpt>
<trkpt lat="31.640001" lon="34.903725">
<ele>282</ele>
<time>2021-02-10T00:25:55Z</time></trkpt>
<trkpt lat="31.639978" lon="34.903516">
<ele>282</ele>
<time>2021-02-10T00:25:59Z</time></trkpt>
<trkpt lat="31.639937" lon="34.903409">
<ele>282</ele>
<time>2021-02-10T00:26:01Z</time></trkpt>
<trkpt lat="31.639859" lon="34.903307">
<ele>283</ele>
<time>2021-02-10T00:26:03Z</time></trkpt>
<trkpt lat="31.639709" lon="34.90321">
<ele>285</ele>
<time>2021-02-10T00:26:07Z</time></trkpt>
<trkpt lat="31.639448" lon="34.903082">
<ele>289</ele>
<time>2021-02-10T00:26:12Z</time></trkpt>
<trkpt lat="31.639206" lon="34.903012">
<ele>291</ele>
<time>2021-02-10T00:26:17Z</time></trkpt>
<trkpt lat="31.638891" lon="34.902862">
<ele>293</ele>
<time>2021-02-10T00:26:24Z</time></trkpt>
<trkpt lat="31.638791" lon="34.90283">
<ele>293</ele>
<time>2021-02-10T00:26:26Z</time></trkpt>
<trkpt lat="31.63838" lon="34.90291">
<ele>295</ele>
<time>2021-02-10T00:26:35Z</time></trkpt>
<trkpt lat="31.63827" lon="34.902856">
<ele>295</ele>
<time>2021-02-10T00:26:37Z</time></trkpt>
<trkpt lat="31.63748" lon="34.901665">
<ele>285</ele>
<time>2021-02-10T00:27:03Z</time></trkpt>
<trkpt lat="31.637416" lon="34.901472">
<ele>284</ele>
<time>2021-02-10T00:27:06Z</time></trkpt>
<trkpt lat="31.637411" lon="34.901301">
<ele>284</ele>
<time>2021-02-10T00:27:09Z</time></trkpt>
<trkpt lat="31.637475" lon="34.900732">
<ele>282</ele>
<time>2021-02-10T00:27:19Z</time></trkpt>
<trkpt lat="31.637589" lon="34.900174">
<ele>280</ele>
<time>2021-02-10T00:27:29Z</time></trkpt>
<trkpt lat="31.637603" lon="34.899799">
<ele>277</ele>
<time>2021-02-10T00:27:35Z</time></trkpt>
<trkpt lat="31.637585" lon="34.899343">
<ele>273</ele>
<time>2021-02-10T00:27:43Z</time></trkpt>
<trkpt lat="31.637503" lon="34.899085">
<ele>271</ele>
<time>2021-02-10T00:27:48Z</time></trkpt>
<trkpt lat="31.637366" lon="34.899101">
<ele>272</ele>
<time>2021-02-10T00:27:50Z</time></trkpt>
<trkpt lat="31.637178" lon="34.89923">
<ele>274</ele>
<time>2021-02-10T00:27:55Z</time></trkpt>
<trkpt lat="31.636845" lon="34.899391">
<ele>276</ele>
<time>2021-02-10T00:28:02Z</time></trkpt>
<trkpt lat="31.636749" lon="34.899455">
<ele>277</ele>
<time>2021-02-10T00:28:04Z</time></trkpt>
<trkpt lat="31.63647" lon="34.899852">
<ele>279</ele>
<time>2021-02-10T00:28:13Z</time></trkpt>
<trkpt lat="31.636365" lon="34.899938">
<ele>280</ele>
<time>2021-02-10T00:28:15Z</time></trkpt>
<trkpt lat="31.636311" lon="34.900684">
<ele>282</ele>
<time>2021-02-10T00:28:28Z</time></trkpt>
<trkpt lat="31.636215" lon="34.901327">
<ele>286</ele>
<time>2021-02-10T00:28:39Z</time></trkpt>
<trkpt lat="31.635881" lon="34.902502">
<ele>290</ele>
<time>2021-02-10T00:29:01Z</time></trkpt>
<trkpt lat="31.63568" lon="34.903119">
<ele>296</ele>
<time>2021-02-10T00:29:12Z</time></trkpt>
<trkpt lat="31.635594" lon="34.903441">
<ele>299</ele>
<time>2021-02-10T00:29:18Z</time></trkpt>
<trkpt lat="31.635502" lon="34.904407">
<ele>305</ele>
<time>2021-02-10T00:29:34Z</time></trkpt>
<trkpt lat="31.635402" lon="34.904895">
<ele>308</ele>
<time>2021-02-10T00:29:43Z</time></trkpt>
<trkpt lat="31.635178" lon="34.905335">
<ele>311</ele>
<time>2021-02-10T00:29:51Z</time></trkpt>
<trkpt lat="31.635009" lon="34.905646">
<ele>313</ele>
<time>2021-02-10T00:29:58Z</time></trkpt>
<trkpt lat="31.634771" lon="34.905855">
<ele>316</ele>
<time>2021-02-10T00:30:04Z</time></trkpt>
<trkpt lat="31.634598" lon="34.905952">
<ele>318</ele>
<time>2021-02-10T00:30:08Z</time></trkpt>
<trkpt lat="31.634223" lon="34.906005">
<ele>320</ele>
<time>2021-02-10T00:30:15Z</time></trkpt>
<trkpt lat="31.63378" lon="34.905978">
<ele>318</ele>
<time>2021-02-10T00:30:24Z</time></trkpt>
<trkpt lat="31.633214" lon="34.906123">
<ele>316</ele>
<time>2021-02-10T00:30:36Z</time></trkpt>
<trkpt lat="31.632575" lon="34.906408">
<ele>316</ele>
<time>2021-02-10T00:30:49Z</time></trkpt>
<trkpt lat="31.632136" lon="34.906418">
<ele>315</ele>
<time>2021-02-10T00:30:58Z</time></trkpt>
<trkpt lat="31.631625" lon="34.906569">
<ele>316</ele>
<time>2021-02-10T00:31:09Z</time></trkpt>
<trkpt lat="31.631181" lon="34.906735">
<ele>319</ele>
<time>2021-02-10T00:31:18Z</time></trkpt>
<trkpt lat="31.630839" lon="34.906901">
<ele>324</ele>
<time>2021-02-10T00:31:25Z</time></trkpt>
<trkpt lat="31.630455" lon="34.906955">
<ele>326</ele>
<time>2021-02-10T00:31:33Z</time></trkpt>
<trkpt lat="31.629912" lon="34.907089">
<ele>330</ele>
<time>2021-02-10T00:31:44Z</time></trkpt>
<trkpt lat="31.629354" lon="34.9071">
<ele>331</ele>
<time>2021-02-10T00:31:55Z</time></trkpt>
<trkpt lat="31.628633" lon="34.906982">
<ele>331</ele>
<time>2021-02-10T00:32:10Z</time></trkpt>
<trkpt lat="31.628331" lon="34.906982">
<ele>330</ele>
<time>2021-02-10T00:32:16Z</time></trkpt>
<trkpt lat="31.627692" lon="34.906971">
<ele>326</ele>
<time>2021-02-10T00:32:29Z</time></trkpt>
<trkpt lat="31.626408" lon="34.906794">
<ele>310</ele>
<time>2021-02-10T00:32:55Z</time></trkpt>
<trkpt lat="31.626057" lon="34.90681">
<ele>307</ele>
<time>2021-02-10T00:33:02Z</time></trkpt>
<trkpt lat="31.625933" lon="34.906826">
<ele>306</ele>
<time>2021-02-10T00:33:04Z</time></trkpt>
<trkpt lat="31.625636" lon="34.90688">
<ele>303</ele>
<time>2021-02-10T00:33:10Z</time></trkpt>
<trkpt lat="31.624919" lon="34.907202">
<ele>297</ele>
<time>2021-02-10T00:33:26Z</time></trkpt>
<trkpt lat="31.624252" lon="34.90747">
<ele>289</ele>
<time>2021-02-10T00:33:40Z</time></trkpt>
<trkpt lat="31.623914" lon="34.907781">
<ele>287</ele>
<time>2021-02-10T00:33:48Z</time></trkpt>
<trkpt lat="31.623814" lon="34.907969">
<ele>286</ele>
<time>2021-02-10T00:33:52Z</time></trkpt>
<trkpt lat="31.623677" lon="34.908532">
<ele>283</ele>
<time>2021-02-10T00:34:02Z</time></trkpt>
<trkpt lat="31.623786" lon="34.909143">
<ele>284</ele>
<time>2021-02-10T00:34:13Z</time></trkpt>
<trkpt lat="31.62406" lon="34.909691">
<ele>284</ele>
<time>2021-02-10T00:34:24Z</time></trkpt>
<trkpt lat="31.624143" lon="34.910195">
<ele>283</ele>
<time>2021-02-10T00:34:33Z</time></trkpt>
<trkpt lat="31.62417" lon="34.910458">
<ele>284</ele>
<time>2021-02-10T00:34:37Z</time></trkpt>
<trkpt lat="31.624115" lon="34.91064">
<ele>284</ele>
<time>2021-02-10T00:34:40Z</time></trkpt>
<trkpt lat="31.624115" lon="34.910785">
<ele>284</ele>
<time>2021-02-10T00:34:43Z</time></trkpt>
<trkpt lat="31.625559" lon="34.91262">
<ele>291</ele>
<time>2021-02-10T00:35:25Z</time></trkpt>
<trkpt lat="31.62544" lon="34.91276">
<ele>293</ele>
<time>2021-02-10T00:35:29Z</time></trkpt>
<trkpt lat="31.62548" lon="34.91285">
<ele>293</ele>
<time>2021-02-10T00:35:31Z</time></trkpt>
<trkpt lat="31.62549" lon="34.91295">
<ele>294</ele>
<time>2021-02-10T00:35:32Z</time></trkpt>
<trkpt lat="31.62547" lon="34.9131">
<ele>295</ele>
<time>2021-02-10T00:35:35Z</time></trkpt>
<trkpt lat="31.62547" lon="34.91318">
<ele>296</ele>
<time>2021-02-10T00:35:36Z</time></trkpt>
<trkpt lat="31.62553" lon="34.91329">
<ele>296</ele>
<time>2021-02-10T00:35:38Z</time></trkpt>
<trkpt lat="31.62579" lon="34.9136">
<ele>296</ele>
<time>2021-02-10T00:35:46Z</time></trkpt>
<trkpt lat="31.62585" lon="34.91372">
<ele>297</ele>
<time>2021-02-10T00:35:48Z</time></trkpt>
<trkpt lat="31.62588" lon="34.91383">
<ele>297</ele>
<time>2021-02-10T00:35:50Z</time></trkpt>
<trkpt lat="31.62591" lon="34.91408">
<ele>299</ele>
<time>2021-02-10T00:35:55Z</time></trkpt>
<trkpt lat="31.62592" lon="34.9143">
<ele>300</ele>
<time>2021-02-10T00:35:58Z</time></trkpt>
<trkpt lat="31.62591" lon="34.91453">
<ele>301</ele>
<time>2021-02-10T00:36:02Z</time></trkpt>
<trkpt lat="31.62581" lon="34.91508">
<ele>304</ele>
<time>2021-02-10T00:36:12Z</time></trkpt>
<trkpt lat="31.62573" lon="34.91573">
<ele>309</ele>
<time>2021-02-10T00:36:23Z</time></trkpt>
<trkpt lat="31.6256" lon="34.9164">
<ele>314</ele>
<time>2021-02-10T00:36:35Z</time></trkpt>
<trkpt lat="31.6256" lon="34.91651">
<ele>314</ele>
<time>2021-02-10T00:36:37Z</time></trkpt>
<trkpt lat="31.62562" lon="34.91674">
<ele>315</ele>
<time>2021-02-10T00:36:41Z</time></trkpt>
<trkpt lat="31.62553" lon="34.91754">
<ele>318</ele>
<time>2021-02-10T00:36:54Z</time></trkpt>
<trkpt lat="31.62553" lon="34.91779">
<ele>319</ele>
<time>2021-02-10T00:36:59Z</time></trkpt>
<trkpt lat="31.62557" lon="34.91809">
<ele>319</ele>
<time>2021-02-10T00:37:04Z</time></trkpt>
<trkpt lat="31.62562" lon="34.9183">
<ele>319</ele>
<time>2021-02-10T00:37:07Z</time></trkpt>
<trkpt lat="31.6257" lon="34.91851">
<ele>319</ele>
<time>2021-02-10T00:37:11Z</time></trkpt>
<trkpt lat="31.62571" lon="34.91859">
<ele>320</ele>
<time>2021-02-10T00:37:13Z</time></trkpt>
<trkpt lat="31.62571" lon="34.91858">
<ele>320</ele>
<time>2021-02-10T00:37:13Z</time></trkpt>
<trkpt lat="31.62572" lon="34.91868">
<ele>320</ele>
<time>2021-02-10T00:37:15Z</time></trkpt>
<trkpt lat="31.62569" lon="34.9189">
<ele>322</ele>
<time>2021-02-10T00:37:18Z</time></trkpt>
<trkpt lat="31.62567" lon="34.91898">
<ele>322</ele>
<time>2021-02-10T00:37:20Z</time></trkpt>
<trkpt lat="31.62556" lon="34.91904">
<ele>323</ele>
<time>2021-02-10T00:37:22Z</time></trkpt>
<trkpt lat="31.62548" lon="34.91912">
<ele>324</ele>
<time>2021-02-10T00:37:24Z</time></trkpt>
<trkpt lat="31.62538" lon="34.91941">
<ele>325</ele>
<time>2021-02-10T00:37:30Z</time></trkpt>
<trkpt lat="31.62532" lon="34.91965">
<ele>325</ele>
<time>2021-02-10T00:37:34Z</time></trkpt>
<trkpt lat="31.62526" lon="34.91976">
<ele>325</ele>
<time>2021-02-10T00:37:36Z</time></trkpt>
<trkpt lat="31.62515" lon="34.91989">
<ele>324</ele>
<time>2021-02-10T00:37:39Z</time></trkpt>
<trkpt lat="31.62496" lon="34.92004">
<ele>323</ele>
<time>2021-02-10T00:37:44Z</time></trkpt>
<trkpt lat="31.62475" lon="34.92018">
<ele>321</ele>
<time>2021-02-10T00:37:49Z</time></trkpt>
<trkpt lat="31.62429" lon="34.9204">
<ele>317</ele>
<time>2021-02-10T00:37:59Z</time></trkpt>
<trkpt lat="31.6235" lon="34.92062">
<ele>307</ele>
<time>2021-02-10T00:38:15Z</time></trkpt>
<trkpt lat="31.62246" lon="34.92101">
<ele>299</ele>
<time>2021-02-10T00:38:37Z</time></trkpt>
<trkpt lat="31.62244" lon="34.92102">
<ele>299</ele>
<time>2021-02-10T00:38:37Z</time></trkpt>
<trkpt lat="31.62251" lon="34.92125">
<ele>301</ele>
<time>2021-02-10T00:38:42Z</time></trkpt>
<trkpt lat="31.62249" lon="34.92138">
<ele>302</ele>
<time>2021-02-10T00:38:44Z</time></trkpt>
<trkpt lat="31.6224" lon="34.9215">
<ele>302</ele>
<time>2021-02-10T00:38:47Z</time></trkpt>
<trkpt lat="31.62212" lon="34.92168">
<ele>301</ele>
<time>2021-02-10T00:38:53Z</time></trkpt>
<trkpt lat="31.62198" lon="34.92181">
<ele>301</ele>
<time>2021-02-10T00:38:56Z</time></trkpt>
<trkpt lat="31.62189" lon="34.92209">
<ele>303</ele>
<time>2021-02-10T00:39:02Z</time></trkpt>
<trkpt lat="31.62159" lon="34.92276">
<ele>304</ele>
<time>2021-02-10T00:39:15Z</time></trkpt>
<trkpt lat="31.62139" lon="34.92312">
<ele>304</ele>
<time>2021-02-10T00:39:22Z</time></trkpt>
<trkpt lat="31.62128" lon="34.92328">
<ele>304</ele>
<time>2021-02-10T00:39:25Z</time></trkpt>
<trkpt lat="31.62111" lon="34.9236">
<ele>303</ele>
<time>2021-02-10T00:39:32Z</time></trkpt>
<trkpt lat="31.62097" lon="34.92408">
<ele>303</ele>
<time>2021-02-10T00:39:40Z</time></trkpt>
<trkpt lat="31.62094" lon="34.92429">
<ele>302</ele>
<time>2021-02-10T00:39:44Z</time></trkpt>
<trkpt lat="31.62089" lon="34.92445">
<ele>302</ele>
<time>2021-02-10T00:39:47Z</time></trkpt>
<trkpt lat="31.6208" lon="34.92468">
<ele>301</ele>
<time>2021-02-10T00:39:51Z</time></trkpt>
<trkpt lat="31.62065" lon="34.92497">
<ele>299</ele>
<time>2021-02-10T00:39:57Z</time></trkpt>
<trkpt lat="31.62059" lon="34.92502">
<ele>298</ele>
<time>2021-02-10T00:39:59Z</time></trkpt>
<trkpt lat="31.62039" lon="34.92511">
<ele>296</ele>
<time>2021-02-10T00:40:03Z</time></trkpt>
<trkpt lat="31.62029" lon="34.92507">
<ele>294</ele>
<time>2021-02-10T00:40:05Z</time></trkpt>
<trkpt lat="31.61999" lon="34.9249">
<ele>291</ele>
<time>2021-02-10T00:40:12Z</time></trkpt>
<trkpt lat="31.61987" lon="34.92486">
<ele>291</ele>
<time>2021-02-10T00:40:14Z</time></trkpt>
<trkpt lat="31.61987" lon="34.92488">
<ele>291</ele>
<time>2021-02-10T00:40:14Z</time></trkpt>
<trkpt lat="31.619913" lon="34.925054">
<ele>291</ele>
<time>2021-02-10T00:40:18Z</time></trkpt>
<trkpt lat="31.620009" lon="34.925242">
<ele>291</ele>
<time>2021-02-10T00:40:21Z</time></trkpt>
<trkpt lat="31.620027" lon="34.925408">
<ele>292</ele>
<time>2021-02-10T00:40:24Z</time></trkpt>
<trkpt lat="31.619927" lon="34.925644">
<ele>292</ele>
<time>2021-02-10T00:40:29Z</time></trkpt>
<trkpt lat="31.619744" lon="34.925848">
<ele>292</ele>
<time>2021-02-10T00:40:34Z</time></trkpt>
<trkpt lat="31.61936" lon="34.926261">
<ele>296</ele>
<time>2021-02-10T00:40:44Z</time></trkpt>
<trkpt lat="31.619214" lon="34.926535">
<ele>299</ele>
<time>2021-02-10T00:40:50Z</time></trkpt>
<trkpt lat="31.619968" lon="34.927028">
<ele>304</ele>
<time>2021-02-10T00:41:07Z</time></trkpt>
<trkpt lat="31.6201" lon="34.927141">
<ele>305</ele>
<time>2021-02-10T00:41:10Z</time></trkpt>
<trkpt lat="31.620749" lon="34.927399">
<ele>302</ele>
<time>2021-02-10T00:41:24Z</time></trkpt>
<trkpt lat="31.621457" lon="34.927774">
<ele>302</ele>
<time>2021-02-10T00:41:40Z</time></trkpt>
<trkpt lat="31.622101" lon="34.928375">
<ele>304</ele>
<time>2021-02-10T00:41:56Z</time></trkpt>
<trkpt lat="31.622841" lon="34.929228">
<ele>306</ele>
<time>2021-02-10T00:42:17Z</time></trkpt>
<trkpt lat="31.622996" lon="34.929458">
<ele>307</ele>
<time>2021-02-10T00:42:22Z</time></trkpt>
<trkpt lat="31.623129" lon="34.92978">
<ele>307</ele>
<time>2021-02-10T00:42:28Z</time></trkpt>
<trkpt lat="31.62322" lon="34.930086">
<ele>307</ele>
<time>2021-02-10T00:42:33Z</time></trkpt>
<trkpt lat="31.623261" lon="34.930349">
<ele>308</ele>
<time>2021-02-10T00:42:38Z</time></trkpt>
<trkpt lat="31.623266" lon="34.930741">
<ele>309</ele>
<time>2021-02-10T00:42:45Z</time></trkpt>
<trkpt lat="31.623307" lon="34.931545">
<ele>312</ele>
<time>2021-02-10T00:42:58Z</time></trkpt>
<trkpt lat="31.623289" lon="34.93169">
<ele>313</ele>
<time>2021-02-10T00:43:01Z</time></trkpt>
<trkpt lat="31.623202" lon="34.931985">
<ele>313</ele>
<time>2021-02-10T00:43:06Z</time></trkpt>
<trkpt lat="31.623051" lon="34.932248">
<ele>313</ele>
<time>2021-02-10T00:43:12Z</time></trkpt>
<trkpt lat="31.622827" lon="34.932538">
<ele>313</ele>
<time>2021-02-10T00:43:18Z</time></trkpt>
<trkpt lat="31.622635" lon="34.932742">
<ele>315</ele>
<time>2021-02-10T00:43:24Z</time></trkpt>
<trkpt lat="31.622206" lon="34.933267">
<ele>319</ele>
<time>2021-02-10T00:43:36Z</time></trkpt>
<trkpt lat="31.62183" lon="34.93375">
<ele>324</ele>
<time>2021-02-10T00:43:47Z</time></trkpt>
<trkpt lat="31.62168" lon="34.93397">
<ele>325</ele>
<time>2021-02-10T00:43:52Z</time></trkpt>
<trkpt lat="31.62162" lon="34.93413">
<ele>327</ele>
<time>2021-02-10T00:43:55Z</time></trkpt>
<trkpt lat="31.62138" lon="34.93482">
<ele>334</ele>
<time>2021-02-10T00:44:08Z</time></trkpt>
<trkpt lat="31.6212" lon="34.93564">
<ele>340</ele>
<time>2021-02-10T00:44:22Z</time></trkpt>
<trkpt lat="31.62115" lon="34.93599">
<ele>342</ele>
<time>2021-02-10T00:44:28Z</time></trkpt>
<trkpt lat="31.62115" lon="34.93624">
<ele>343</ele>
<time>2021-02-10T00:44:32Z</time></trkpt>
<trkpt lat="31.62109" lon="34.93671">
<ele>344</ele>
<time>2021-02-10T00:44:41Z</time></trkpt>
<trkpt lat="31.62109" lon="34.93695">
<ele>346</ele>
<time>2021-02-10T00:44:45Z</time></trkpt>
<trkpt lat="31.62112" lon="34.93729">
<ele>349</ele>
<time>2021-02-10T00:44:50Z</time></trkpt>
<trkpt lat="31.62112" lon="34.93728">
<ele>349</ele>
<time>2021-02-10T00:44:51Z</time></trkpt>
<trkpt lat="31.62112" lon="34.93753">
<ele>351</ele>
<time>2021-02-10T00:44:55Z</time></trkpt>
<trkpt lat="31.62109" lon="34.93801">
<ele>353</ele>
<time>2021-02-10T00:45:03Z</time></trkpt>
<trkpt lat="31.62114" lon="34.93848">
<ele>356</ele>
<time>2021-02-10T00:45:11Z</time></trkpt>
<trkpt lat="31.62124" lon="34.93894">
<ele>358</ele>
<time>2021-02-10T00:45:19Z</time></trkpt>
<trkpt lat="31.6213" lon="34.93933">
<ele>360</ele>
<time>2021-02-10T00:45:26Z</time></trkpt>
<trkpt lat="31.62132" lon="34.94014">
<ele>363</ele>
<time>2021-02-10T00:45:40Z</time></trkpt>
<trkpt lat="31.62119" lon="34.94085">
<ele>366</ele>
<time>2021-02-10T00:45:52Z</time></trkpt>
<trkpt lat="31.62109" lon="34.94117">
<ele>367</ele>
<time>2021-02-10T00:45:58Z</time></trkpt>
<trkpt lat="31.62093" lon="34.94189">
<ele>370</ele>
<time>2021-02-10T00:46:11Z</time></trkpt>
<trkpt lat="31.62085" lon="34.94215">
<ele>370</ele>
<time>2021-02-10T00:46:15Z</time></trkpt>
<trkpt lat="31.6208" lon="34.94238">
<ele>371</ele>
<time>2021-02-10T00:46:20Z</time></trkpt>
<trkpt lat="31.62077" lon="34.94265">
<ele>373</ele>
<time>2021-02-10T00:46:24Z</time></trkpt>
<trkpt lat="31.62058" lon="34.94376">
<ele>381</ele>
<time>2021-02-10T00:46:43Z</time></trkpt>
<trkpt lat="31.62058" lon="34.944114">
<ele>382</ele>
<time>2021-02-10T00:46:50Z</time></trkpt>
<trkpt lat="31.620667" lon="34.944602">
<ele>385</ele>
<time>2021-02-10T00:46:58Z</time></trkpt>
<trkpt lat="31.620822" lon="34.945149">
<ele>388</ele>
<time>2021-02-10T00:47:08Z</time></trkpt>
<trkpt lat="31.621064" lon="34.945723">
<ele>394</ele>
<time>2021-02-10T00:47:19Z</time></trkpt>
<trkpt lat="31.621279" lon="34.946094">
<ele>397</ele>
<time>2021-02-10T00:47:26Z</time></trkpt>
<trkpt lat="31.62174" lon="34.946619">
<ele>400</ele>
<time>2021-02-10T00:47:39Z</time></trkpt>
<trkpt lat="31.622265" lon="34.947075">
<ele>405</ele>
<time>2021-02-10T00:47:52Z</time></trkpt>
<trkpt lat="31.622855" lon="34.947531">
<ele>407</ele>
<time>2021-02-10T00:48:07Z</time></trkpt>
<trkpt lat="31.622919" lon="34.947585">
<ele>408</ele>
<time>2021-02-10T00:48:08Z</time></trkpt>
<trkpt lat="31.622987" lon="34.947724">
<ele>408</ele>
<time>2021-02-10T00:48:11Z</time></trkpt>
<trkpt lat="31.622781" lon="34.947848">
<ele>407</ele>
<time>2021-02-10T00:48:16Z</time></trkpt>
<trkpt lat="31.622617" lon="34.947987">
<ele>405</ele>
<time>2021-02-10T00:48:20Z</time></trkpt>
<trkpt lat="31.622242" lon="34.94833">
<ele>402</ele>
<time>2021-02-10T00:48:29Z</time></trkpt>
<trkpt lat="31.621909" lon="34.948588">
<ele>398</ele>
<time>2021-02-10T00:48:37Z</time></trkpt>
<trkpt lat="31.621566" lon="34.948894">
<ele>391</ele>
<time>2021-02-10T00:48:46Z</time></trkpt>
<trkpt lat="31.621279" lon="34.949167">
<ele>384</ele>
<time>2021-02-10T00:48:53Z</time></trkpt>
<trkpt lat="31.620776" lon="34.949586">
<ele>376</ele>
<time>2021-02-10T00:49:05Z</time></trkpt>
<trkpt lat="31.620648" lon="34.949661">
<ele>374</ele>
<time>2021-02-10T00:49:08Z</time></trkpt>
<trkpt lat="31.620452" lon="34.949725">
<ele>372</ele>
<time>2021-02-10T00:49:12Z</time></trkpt>
<trkpt lat="31.61999" lon="34.949768">
<ele>365</ele>
<time>2021-02-10T00:49:22Z</time></trkpt>
<trkpt lat="31.619419" lon="34.949967">
<ele>355</ele>
<time>2021-02-10T00:49:34Z</time></trkpt>
<trkpt lat="31.618803" lon="34.95053">
<ele>351</ele>
<time>2021-02-10T00:49:49Z</time></trkpt>
<trkpt lat="31.618661" lon="34.950766">
<ele>350</ele>
<time>2021-02-10T00:49:54Z</time></trkpt>
<trkpt lat="31.618602" lon="34.950986">
<ele>351</ele>
<time>2021-02-10T00:49:58Z</time></trkpt>
<trkpt lat="31.61862" lon="34.951211">
<ele>353</ele>
<time>2021-02-10T00:50:02Z</time></trkpt>
<trkpt lat="31.618757" lon="34.951785">
<ele>357</ele>
<time>2021-02-10T00:50:12Z</time></trkpt>
<trkpt lat="31.618826" lon="34.952037">
<ele>358</ele>
<time>2021-02-10T00:50:17Z</time></trkpt>
<trkpt lat="31.618949" lon="34.9523">
<ele>359</ele>
<time>2021-02-10T00:50:22Z</time></trkpt>
<trkpt lat="31.619113" lon="34.952568">
<ele>359</ele>
<time>2021-02-10T00:50:27Z</time></trkpt>
<trkpt lat="31.619324" lon="34.952869">
<ele>362</ele>
<time>2021-02-10T00:50:34Z</time></trkpt>
<trkpt lat="31.619474" lon="34.953094">
<ele>363</ele>
<time>2021-02-10T00:50:39Z</time></trkpt>
<trkpt lat="31.619703" lon="34.953346">
<ele>364</ele>
<time>2021-02-10T00:50:45Z</time></trkpt>
<trkpt lat="31.620255" lon="34.953722">
<ele>371</ele>
<time>2021-02-10T00:50:58Z</time></trkpt>
<trkpt lat="31.62063" lon="34.953995">
<ele>373</ele>
<time>2021-02-10T00:51:07Z</time></trkpt>
<trkpt lat="31.620959" lon="34.954242">
<ele>376</ele>
<time>2021-02-10T00:51:15Z</time></trkpt>
<trkpt lat="31.621055" lon="34.954349">
<ele>379</ele>
<time>2021-02-10T00:51:17Z</time></trkpt>
<trkpt lat="31.621238" lon="34.954741">
<ele>387</ele>
<time>2021-02-10T00:51:25Z</time></trkpt>
<trkpt lat="31.621384" lon="34.955041">
<ele>392</ele>
<time>2021-02-10T00:51:31Z</time></trkpt>
<trkpt lat="31.621708" lon="34.955572">
<ele>400</ele>
<time>2021-02-10T00:51:42Z</time></trkpt>
<trkpt lat="31.62195" lon="34.956007">
<ele>407</ele>
<time>2021-02-10T00:51:51Z</time></trkpt>
<trkpt lat="31.622014" lon="34.956082">
<ele>408</ele>
<time>2021-02-10T00:51:53Z</time></trkpt>
<trkpt lat="31.622096" lon="34.956205">
<ele>409</ele>
<time>2021-02-10T00:51:55Z</time></trkpt>
<trkpt lat="31.62227" lon="34.956441">
<ele>411</ele>
<time>2021-02-10T00:52:01Z</time></trkpt>
<trkpt lat="31.62232" lon="34.956667">
<ele>411</ele>
<time>2021-02-10T00:52:05Z</time></trkpt>
<trkpt lat="31.622361" lon="34.956806">
<ele>411</ele>
<time>2021-02-10T00:52:07Z</time></trkpt>
<trkpt lat="31.622672" lon="34.957026">
<ele>409</ele>
<time>2021-02-10T00:52:14Z</time></trkpt>
<trkpt lat="31.62312" lon="34.957123">
<ele>409</ele>
<time>2021-02-10T00:52:24Z</time></trkpt>
<trkpt lat="31.623037" lon="34.957477">
<ele>406</ele>
<time>2021-02-10T00:52:30Z</time></trkpt>
<trkpt lat="31.622946" lon="34.958389">
<ele>401</ele>
<time>2021-02-10T00:52:46Z</time></trkpt>
<trkpt lat="31.622946" lon="34.958915">
<ele>399</ele>
<time>2021-02-10T00:52:55Z</time></trkpt>
<trkpt lat="31.622727" lon="34.959376">
<ele>399</ele>
<time>2021-02-10T00:53:04Z</time></trkpt>
<trkpt lat="31.622352" lon="34.959666">
<ele>398</ele>
<time>2021-02-10T00:53:13Z</time></trkpt>
<trkpt lat="31.621987" lon="34.959987">
<ele>396</ele>
<time>2021-02-10T00:53:22Z</time></trkpt>
<trkpt lat="31.621091" lon="34.960545">
<ele>391</ele>
<time>2021-02-10T00:53:42Z</time></trkpt>
<trkpt lat="31.620525" lon="34.960921">
<ele>385</ele>
<time>2021-02-10T00:53:55Z</time></trkpt>
<trkpt lat="31.619429" lon="34.961693">
<ele>373</ele>
<time>2021-02-10T00:54:21Z</time></trkpt>
<trkpt lat="31.61941" lon="34.9617">
<ele>373</ele>
<time>2021-02-10T00:54:21Z</time></trkpt>
<trkpt lat="31.6196" lon="34.96209">
<ele>377</ele>
<time>2021-02-10T00:54:29Z</time></trkpt>
<trkpt lat="31.61961" lon="34.96217">
<ele>377</ele>
<time>2021-02-10T00:54:30Z</time></trkpt>
<trkpt lat="31.61974" lon="34.9625">
<ele>379</ele>
<time>2021-02-10T00:54:36Z</time></trkpt>
<trkpt lat="31.61984" lon="34.96285">
<ele>379</ele>
<time>2021-02-10T00:54:43Z</time></trkpt>
<trkpt lat="31.62012" lon="34.96334">
<ele>381</ele>
<time>2021-02-10T00:54:53Z</time></trkpt>
<trkpt lat="31.62037" lon="34.96383">
<ele>384</ele>
<time>2021-02-10T00:55:02Z</time></trkpt>
<trkpt lat="31.62072" lon="34.9643">
<ele>387</ele>
<time>2021-02-10T00:55:13Z</time></trkpt>
<trkpt lat="31.62078" lon="34.96442">
<ele>388</ele>
<time>2021-02-10T00:55:15Z</time></trkpt>
<trkpt lat="31.62104" lon="34.96471">
<ele>391</ele>
<time>2021-02-10T00:55:23Z</time></trkpt>
<trkpt lat="31.62152" lon="34.96509">
<ele>394</ele>
<time>2021-02-10T00:55:34Z</time></trkpt>
<trkpt lat="31.62162" lon="34.96514">
<ele>395</ele>
<time>2021-02-10T00:55:36Z</time></trkpt>
<trkpt lat="31.62161" lon="34.96514">
<ele>395</ele>
<time>2021-02-10T00:55:37Z</time></trkpt>
<trkpt lat="31.62172" lon="34.9652">
<ele>396</ele>
<time>2021-02-10T00:55:39Z</time></trkpt>
<trkpt lat="31.62211" lon="34.96534">
<ele>399</ele>
<time>2021-02-10T00:55:47Z</time></trkpt>
<trkpt lat="31.62263" lon="34.96546">
<ele>403</ele>
<time>2021-02-10T00:55:58Z</time></trkpt>
<trkpt lat="31.62272" lon="34.96551">
<ele>404</ele>
<time>2021-02-10T00:56:00Z</time></trkpt>
<trkpt lat="31.6228" lon="34.96557">
<ele>405</ele>
<time>2021-02-10T00:56:02Z</time></trkpt>
<trkpt lat="31.62281" lon="34.96561">
<ele>405</ele>
<time>2021-02-10T00:56:02Z</time></trkpt>
<trkpt lat="31.62284" lon="34.96567">
<ele>405</ele>
<time>2021-02-10T00:56:04Z</time></trkpt>
<trkpt lat="31.62285" lon="34.96577">
<ele>405</ele>
<time>2021-02-10T00:56:05Z</time></trkpt>
<trkpt lat="31.6229" lon="34.96588">
<ele>406</ele>
<time>2021-02-10T00:56:07Z</time></trkpt>
<trkpt lat="31.62299" lon="34.96586">
<ele>407</ele>
<time>2021-02-10T00:56:09Z</time></trkpt>
<trkpt lat="31.62306" lon="34.96576">
<ele>408</ele>
<time>2021-02-10T00:56:11Z</time></trkpt>
<trkpt lat="31.62311" lon="34.96566">
<ele>408</ele>
<time>2021-02-10T00:56:13Z</time></trkpt>
<trkpt lat="31.62317" lon="34.96558">
<ele>409</ele>
<time>2021-02-10T00:56:15Z</time></trkpt>
<trkpt lat="31.6232" lon="34.96534">
<ele>409</ele>
<time>2021-02-10T00:56:19Z</time></trkpt>
<trkpt lat="31.62326" lon="34.96528">
<ele>410</ele>
<time>2021-02-10T00:56:21Z</time></trkpt>
<trkpt lat="31.62337" lon="34.96495">
<ele>411</ele>
<time>2021-02-10T00:56:27Z</time></trkpt>
<trkpt lat="31.62358" lon="34.96455">
<ele>411</ele>
<time>2021-02-10T00:56:35Z</time></trkpt>
<trkpt lat="31.62372" lon="34.96433">
<ele>410</ele>
<time>2021-02-10T00:56:40Z</time></trkpt>
<trkpt lat="31.6239" lon="34.96412">
<ele>408</ele>
<time>2021-02-10T00:56:45Z</time></trkpt>
<trkpt lat="31.62408" lon="34.96399">
<ele>408</ele>
<time>2021-02-10T00:56:49Z</time></trkpt>
<trkpt lat="31.62453" lon="34.96383">
<ele>403</ele>
<time>2021-02-10T00:56:58Z</time></trkpt>
<trkpt lat="31.62456" lon="34.96383">
<ele>403</ele>
<time>2021-02-10T00:56:59Z</time></trkpt>
<trkpt lat="31.62455" lon="34.96383">
<ele>403</ele>
<time>2021-02-10T00:56:59Z</time></trkpt>
<trkpt lat="31.62465" lon="34.96384">
<ele>402</ele>
<time>2021-02-10T00:57:01Z</time></trkpt>
<trkpt lat="31.62473" lon="34.96389">
<ele>401</ele>
<time>2021-02-10T00:57:03Z</time></trkpt>
<trkpt lat="31.62487" lon="34.96389">
<ele>400</ele>
<time>2021-02-10T00:57:06Z</time></trkpt>
<trkpt lat="31.62552" lon="34.96363">
<ele>393</ele>
<time>2021-02-10T00:57:20Z</time></trkpt>
<trkpt lat="31.62586" lon="34.96354">
<ele>389</ele>
<time>2021-02-10T00:57:27Z</time></trkpt>
<trkpt lat="31.62596" lon="34.96348">
<ele>387</ele>
<time>2021-02-10T00:57:29Z</time></trkpt>
<trkpt lat="31.62609" lon="34.96326">
<ele>384</ele>
<time>2021-02-10T00:57:33Z</time></trkpt>
<trkpt lat="31.62616" lon="34.96319">
<ele>383</ele>
<time>2021-02-10T00:57:35Z</time></trkpt>
<trkpt lat="31.62628" lon="34.96313">
<ele>381</ele>
<time>2021-02-10T00:57:38Z</time></trkpt>
<trkpt lat="31.6264" lon="34.96295">
<ele>380</ele>
<time>2021-02-10T00:57:42Z</time></trkpt>
<trkpt lat="31.6265" lon="34.96287">
<ele>379</ele>
<time>2021-02-10T00:57:44Z</time></trkpt>
<trkpt lat="31.62663" lon="34.96292">
<ele>378</ele>
<time>2021-02-10T00:57:47Z</time></trkpt>
<trkpt lat="31.6268" lon="34.96305">
<ele>376</ele>
<time>2021-02-10T00:57:51Z</time></trkpt>
<trkpt lat="31.62695" lon="34.96314">
<ele>375</ele>
<time>2021-02-10T00:57:54Z</time></trkpt>
<trkpt lat="31.6276" lon="34.96347">
<ele>371</ele>
<time>2021-02-10T00:58:09Z</time></trkpt>
<trkpt lat="31.62778" lon="34.9637">
<ele>371</ele>
<time>2021-02-10T00:58:14Z</time></trkpt>
<trkpt lat="31.62792" lon="34.96394">
<ele>370</ele>
<time>2021-02-10T00:58:19Z</time></trkpt>
<trkpt lat="31.62802" lon="34.96414">
<ele>370</ele>
<time>2021-02-10T00:58:23Z</time></trkpt>
<trkpt lat="31.62815" lon="34.96458">
<ele>369</ele>
<time>2021-02-10T00:58:31Z</time></trkpt>
<trkpt lat="31.62816" lon="34.96456">
<ele>369</ele>
<time>2021-02-10T00:58:31Z</time></trkpt>
<trkpt lat="31.6286" lon="34.96407">
<ele>368</ele>
<time>2021-02-10T00:58:43Z</time></trkpt>
<trkpt lat="31.62909" lon="34.96355">
<ele>369</ele>
<time>2021-02-10T00:58:57Z</time></trkpt>
<trkpt lat="31.6298" lon="34.96295">
<ele>369</ele>
<time>2021-02-10T00:59:14Z</time></trkpt>
<trkpt lat="31.63027" lon="34.96247">
<ele>366</ele>
<time>2021-02-10T00:59:27Z</time></trkpt>
<trkpt lat="31.6306" lon="34.96226">
<ele>366</ele>
<time>2021-02-10T00:59:34Z</time></trkpt>
<trkpt lat="31.63093" lon="34.96216">
<ele>365</ele>
<time>2021-02-10T00:59:41Z</time></trkpt>
<trkpt lat="31.6319" lon="34.96195">
<ele>363</ele>
<time>2021-02-10T01:00:01Z</time></trkpt>
<trkpt lat="31.63217" lon="34.96188">
<ele>362</ele>
<time>2021-02-10T01:00:06Z</time></trkpt>
<trkpt lat="31.63279" lon="34.96163">
<ele>359</ele>
<time>2021-02-10T01:00:19Z</time></trkpt>
<trkpt lat="31.63308" lon="34.96155">
<ele>359</ele>
<time>2021-02-10T01:00:25Z</time></trkpt>
<trkpt lat="31.63322" lon="34.96153">
<ele>359</ele>
<time>2021-02-10T01:00:28Z</time></trkpt>
<trkpt lat="31.63336" lon="34.96153">
<ele>359</ele>
<time>2021-02-10T01:00:31Z</time></trkpt>
<trkpt lat="31.63359" lon="34.96156">
<ele>359</ele>
<time>2021-02-10T01:00:36Z</time></trkpt>
<trkpt lat="31.63429" lon="34.96177">
<ele>358</ele>
<time>2021-02-10T01:00:50Z</time></trkpt>
<trkpt lat="31.63463" lon="34.96181">
<ele>358</ele>
<time>2021-02-10T01:00:57Z</time></trkpt>
<trkpt lat="31.63484" lon="34.96178">
<ele>357</ele>
<time>2021-02-10T01:01:01Z</time></trkpt>
<trkpt lat="31.63517" lon="34.9617">
<ele>356</ele>
<time>2021-02-10T01:01:08Z</time></trkpt>
<trkpt lat="31.63556" lon="34.96166">
<ele>355</ele>
<time>2021-02-10T01:01:16Z</time></trkpt>
<trkpt lat="31.6365" lon="34.96168">
<ele>354</ele>
<time>2021-02-10T01:01:35Z</time></trkpt>
<trkpt lat="31.63726" lon="34.9616">
<ele>351</ele>
<time>2021-02-10T01:01:50Z</time></trkpt>
<trkpt lat="31.63742" lon="34.96161">
<ele>350</ele>
<time>2021-02-10T01:01:53Z</time></trkpt>
<trkpt lat="31.63741" lon="34.96161">
<ele>350</ele>
<time>2021-02-10T01:01:53Z</time></trkpt>
<trkpt lat="31.6375" lon="34.96161">
<ele>350</ele>
<time>2021-02-10T01:01:55Z</time></trkpt>
<trkpt lat="31.63769" lon="34.96166">
<ele>350</ele>
<time>2021-02-10T01:01:59Z</time></trkpt>
<trkpt lat="31.63781" lon="34.96172">
<ele>350</ele>
<time>2021-02-10T01:02:02Z</time></trkpt>
<trkpt lat="31.63798" lon="34.96186">
<ele>351</ele>
<time>2021-02-10T01:02:06Z</time></trkpt>
<trkpt lat="31.63879" lon="34.96233">
<ele>356</ele>
<time>2021-02-10T01:02:24Z</time></trkpt>
<trkpt lat="31.6392" lon="34.96265">
<ele>359</ele>
<time>2021-02-10T01:02:34Z</time></trkpt>
<trkpt lat="31.63944" lon="34.96278">
<ele>360</ele>
<time>2021-02-10T01:02:39Z</time></trkpt>
<trkpt lat="31.63945" lon="34.96276">
<ele>360</ele>
<time>2021-02-10T01:02:39Z</time></trkpt>
<trkpt lat="31.63961" lon="34.96254">
<ele>359</ele>
<time>2021-02-10T01:02:44Z</time></trkpt>
<trkpt lat="31.63984" lon="34.96228">
<ele>358</ele>
<time>2021-02-10T01:02:51Z</time></trkpt>
<trkpt lat="31.64005" lon="34.96199">
<ele>357</ele>
<time>2021-02-10T01:02:57Z</time></trkpt>
<trkpt lat="31.64014" lon="34.9618">
<ele>358</ele>
<time>2021-02-10T01:03:01Z</time></trkpt>
<trkpt lat="31.64021" lon="34.96152">
<ele>358</ele>
<time>2021-02-10T01:03:06Z</time></trkpt>
<trkpt lat="31.64021" lon="34.96127">
<ele>359</ele>
<time>2021-02-10T01:03:10Z</time></trkpt>
<trkpt lat="31.64012" lon="34.96103">
<ele>359</ele>
<time>2021-02-10T01:03:15Z</time></trkpt>
<trkpt lat="31.63995" lon="34.96071">
<ele>357</ele>
<time>2021-02-10T01:03:21Z</time></trkpt>
<trkpt lat="31.63971" lon="34.96045">
<ele>353</ele>
<time>2021-02-10T01:03:28Z</time></trkpt>
<trkpt lat="31.63967" lon="34.96034">
<ele>352</ele>
<time>2021-02-10T01:03:30Z</time></trkpt>
<trkpt lat="31.63966" lon="34.96017">
<ele>352</ele>
<time>2021-02-10T01:03:33Z</time></trkpt>
<trkpt lat="31.6397" lon="34.95988">
<ele>351</ele>
<time>2021-02-10T01:03:38Z</time></trkpt>
<trkpt lat="31.63976" lon="34.95968">
<ele>352</ele>
<time>2021-02-10T01:03:41Z</time></trkpt>
<trkpt lat="31.63987" lon="34.95937">
<ele>352</ele>
<time>2021-02-10T01:03:47Z</time></trkpt>
<trkpt lat="31.64008" lon="34.95892">
<ele>351</ele>
<time>2021-02-10T01:03:56Z</time></trkpt>
<trkpt lat="31.64029" lon="34.95853">
<ele>349</ele>
<time>2021-02-10T01:04:04Z</time></trkpt>
<trkpt lat="31.64039" lon="34.95841">
<ele>349</ele>
<time>2021-02-10T01:04:06Z</time></trkpt>
<trkpt lat="31.64046" lon="34.95826">
<ele>348</ele>
<time>2021-02-10T01:04:09Z</time></trkpt>
<trkpt lat="31.64059" lon="34.95806">
<ele>348</ele>
<time>2021-02-10T01:04:14Z</time></trkpt>
<trkpt lat="31.64074" lon="34.95787">
<ele>347</ele>
<time>2021-02-10T01:04:18Z</time></trkpt>
<trkpt lat="31.64085" lon="34.95777">
<ele>347</ele>
<time>2021-02-10T01:04:21Z</time></trkpt>
<trkpt lat="31.64107" lon="34.95762">
<ele>346</ele>
<time>2021-02-10T01:04:26Z</time></trkpt>
<trkpt lat="31.64127" lon="34.95752">
<ele>346</ele>
<time>2021-02-10T01:04:30Z</time></trkpt>
<trkpt lat="31.64157" lon="34.9574">
<ele>347</ele>
<time>2021-02-10T01:04:37Z</time></trkpt>
<trkpt lat="31.64222" lon="34.95713">
<ele>346</ele>
<time>2021-02-10T01:04:51Z</time></trkpt>
<trkpt lat="31.64258" lon="34.9571">
<ele>347</ele>
<time>2021-02-10T01:04:58Z</time></trkpt>
<trkpt lat="31.64268" lon="34.95711">
<ele>347</ele>
<time>2021-02-10T01:05:00Z</time></trkpt>
<trkpt lat="31.6429" lon="34.95715">
<ele>347</ele>
<time>2021-02-10T01:05:04Z</time></trkpt>
<trkpt lat="31.64357" lon="34.95745">
<ele>350</ele>
<time>2021-02-10T01:05:19Z</time></trkpt>
<trkpt lat="31.64368" lon="34.95756">
<ele>351</ele>
<time>2021-02-10T01:05:21Z</time></trkpt>
<trkpt lat="31.64387" lon="34.95787">
<ele>354</ele>
<time>2021-02-10T01:05:28Z</time></trkpt>
<trkpt lat="31.64395" lon="34.95794">
<ele>354</ele>
<time>2021-02-10T01:05:30Z</time></trkpt>
<trkpt lat="31.64404" lon="34.95796">
<ele>354</ele>
<time>2021-02-10T01:05:32Z</time></trkpt>
<trkpt lat="31.64413" lon="34.95796">
<ele>354</ele>
<time>2021-02-10T01:05:34Z</time></trkpt>
<trkpt lat="31.64423" lon="34.95792">
<ele>354</ele>
<time>2021-02-10T01:05:36Z</time></trkpt>
<trkpt lat="31.64429" lon="34.95787">
<ele>354</ele>
<time>2021-02-10T01:05:37Z</time></trkpt>
<trkpt lat="31.64437" lon="34.95773">
<ele>354</ele>
<time>2021-02-10T01:05:40Z</time></trkpt>
<trkpt lat="31.64442" lon="34.95753">
<ele>352</ele>
<time>2021-02-10T01:05:44Z</time></trkpt>
<trkpt lat="31.64446" lon="34.95728">
<ele>350</ele>
<time>2021-02-10T01:05:48Z</time></trkpt>
<trkpt lat="31.6445" lon="34.95716">
<ele>350</ele>
<time>2021-02-10T01:05:50Z</time></trkpt>
<trkpt lat="31.64462" lon="34.95695">
<ele>349</ele>
<time>2021-02-10T01:05:55Z</time></trkpt>
<trkpt lat="31.64491" lon="34.95663">
<ele>347</ele>
<time>2021-02-10T01:06:02Z</time></trkpt>
<trkpt lat="31.64509" lon="34.95648">
<ele>346</ele>
<time>2021-02-10T01:06:07Z</time></trkpt>
<trkpt lat="31.64576" lon="34.95599">
<ele>344</ele>
<time>2021-02-10T01:06:23Z</time></trkpt>
<trkpt lat="31.6459" lon="34.95586">
<ele>343</ele>
<time>2021-02-10T01:06:26Z</time></trkpt>
<trkpt lat="31.64686" lon="34.95477">
<ele>336</ele>
<time>2021-02-10T01:06:53Z</time></trkpt>
<trkpt lat="31.64695" lon="34.95462">
<ele>335</ele>
<time>2021-02-10T01:06:56Z</time></trkpt>
<trkpt lat="31.64693" lon="34.95463">
<ele>335</ele>
<time>2021-02-10T01:06:57Z</time></trkpt>
<trkpt lat="31.64702" lon="34.95484">
<ele>336</ele>
<time>2021-02-10T01:07:01Z</time></trkpt>
<trkpt lat="31.64717" lon="34.95512">
<ele>337</ele>
<time>2021-02-10T01:07:06Z</time></trkpt>
<trkpt lat="31.64731" lon="34.95547">
<ele>337</ele>
<time>2021-02-10T01:07:13Z</time></trkpt>
<trkpt lat="31.64753" lon="34.95594">
<ele>337</ele>
<time>2021-02-10T01:07:22Z</time></trkpt>
<trkpt lat="31.64778" lon="34.95661">
<ele>339</ele>
<time>2021-02-10T01:07:34Z</time></trkpt>
<trkpt lat="31.64789" lon="34.95696">
<ele>340</ele>
<time>2021-02-10T01:07:41Z</time></trkpt>
<trkpt lat="31.6481" lon="34.95778">
<ele>342</ele>
<time>2021-02-10T01:07:55Z</time></trkpt>
<trkpt lat="31.64823" lon="34.95814">
<ele>341</ele>
<time>2021-02-10T01:08:02Z</time></trkpt>
<trkpt lat="31.64827" lon="34.95832">
<ele>341</ele>
<time>2021-02-10T01:08:05Z</time></trkpt>
<trkpt lat="31.64828" lon="34.9585">
<ele>341</ele>
<time>2021-02-10T01:08:08Z</time></trkpt>
<trkpt lat="31.6481" lon="34.95917">
<ele>346</ele>
<time>2021-02-10T01:08:20Z</time></trkpt>
<trkpt lat="31.64808" lon="34.95934">
<ele>347</ele>
<time>2021-02-10T01:08:23Z</time></trkpt>
<trkpt lat="31.64808" lon="34.95983">
<ele>348</ele>
<time>2021-02-10T01:08:32Z</time></trkpt>
<trkpt lat="31.6481" lon="34.96013">
<ele>349</ele>
<time>2021-02-10T01:08:37Z</time></trkpt>
<trkpt lat="31.648" lon="34.96123">
<ele>350</ele>
<time>2021-02-10T01:08:56Z</time></trkpt>
<trkpt lat="31.64796" lon="34.96192">
<ele>350</ele>
<time>2021-02-10T01:09:07Z</time></trkpt>
<trkpt lat="31.6479" lon="34.96225">
<ele>351</ele>
<time>2021-02-10T01:09:13Z</time></trkpt>
<trkpt lat="31.64785" lon="34.96267">
<ele>352</ele>
<time>2021-02-10T01:09:20Z</time></trkpt>
<trkpt lat="31.64786" lon="34.96285">
<ele>352</ele>
<time>2021-02-10T01:09:24Z</time></trkpt>
<trkpt lat="31.64786" lon="34.96284">
<ele>352</ele>
<time>2021-02-10T01:09:24Z</time></trkpt>
<trkpt lat="31.648" lon="34.96355">
<ele>355</ele>
<time>2021-02-10T01:09:36Z</time></trkpt>
<trkpt lat="31.64839" lon="34.96522">
<ele>357</ele>
<time>2021-02-10T01:10:06Z</time></trkpt>
<trkpt lat="31.6485" lon="34.96553">
<ele>359</ele>
<time>2021-02-10T01:10:11Z</time></trkpt>
<trkpt lat="31.64863" lon="34.96587">
<ele>360</ele>
<time>2021-02-10T01:10:18Z</time></trkpt>
<trkpt lat="31.64869" lon="34.96598">
<ele>361</ele>
<time>2021-02-10T01:10:20Z</time></trkpt>
<trkpt lat="31.64884" lon="34.96617">
<ele>363</ele>
<time>2021-02-10T01:10:24Z</time></trkpt>
<trkpt lat="31.64925" lon="34.96645">
<ele>368</ele>
<time>2021-02-10T01:10:34Z</time></trkpt>
<trkpt lat="31.6495" lon="34.96655">
<ele>368</ele>
<time>2021-02-10T01:10:39Z</time></trkpt>
<trkpt lat="31.64975" lon="34.9668">
<ele>368</ele>
<time>2021-02-10T01:10:46Z</time></trkpt>
<trkpt lat="31.64982" lon="34.96692">
<ele>368</ele>
<time>2021-02-10T01:10:48Z</time></trkpt>
<trkpt lat="31.64986" lon="34.96704">
<ele>368</ele>
<time>2021-02-10T01:10:50Z</time></trkpt>
<trkpt lat="31.65013" lon="34.96728">
<ele>367</ele>
<time>2021-02-10T01:10:57Z</time></trkpt>
<trkpt lat="31.65026" lon="34.96736">
<ele>366</ele>
<time>2021-02-10T01:11:00Z</time></trkpt>
<trkpt lat="31.65063" lon="34.96747">
<ele>363</ele>
<time>2021-02-10T01:11:08Z</time></trkpt>
<trkpt lat="31.65147" lon="34.96792">
<ele>358</ele>
<time>2021-02-10T01:11:26Z</time></trkpt>
<trkpt lat="31.65213" lon="34.96816">
<ele>354</ele>
<time>2021-02-10T01:11:40Z</time></trkpt>
<trkpt lat="31.65308" lon="34.96836">
<ele>347</ele>
<time>2021-02-10T01:12:00Z</time></trkpt>
<trkpt lat="31.65336" lon="34.96838">
<ele>345</ele>
<time>2021-02-10T01:12:05Z</time></trkpt>
<trkpt lat="31.65379" lon="34.96837">
<ele>342</ele>
<time>2021-02-10T01:12:14Z</time></trkpt>
<trkpt lat="31.65433" lon="34.96826">
<ele>341</ele>
<time>2021-02-10T01:12:25Z</time></trkpt>
<trkpt lat="31.65444" lon="34.96828">
<ele>342</ele>
<time>2021-02-10T01:12:27Z</time></trkpt>
<trkpt lat="31.65451" lon="34.96831">
<ele>342</ele>
<time>2021-02-10T01:12:28Z</time></trkpt>
<trkpt lat="31.6545" lon="34.96831">
<ele>342</ele>
<time>2021-02-10T01:12:29Z</time></trkpt>
<trkpt lat="31.65452" lon="34.96831">
<ele>342</ele>
<time>2021-02-10T01:12:29Z</time></trkpt>
<trkpt lat="31.65455" lon="34.96795">
<ele>342</ele>
<time>2021-02-10T01:12:35Z</time></trkpt>
<trkpt lat="31.65463" lon="34.96765">
<ele>342</ele>
<time>2021-02-10T01:12:41Z</time></trkpt>
<trkpt lat="31.6549" lon="34.96716">
<ele>341</ele>
<time>2021-02-10T01:12:51Z</time></trkpt>
<trkpt lat="31.65585" lon="34.96484">
<ele>333</ele>
<time>2021-02-10T01:13:34Z</time></trkpt>
<trkpt lat="31.65638" lon="34.96415">
<ele>332</ele>
<time>2021-02-10T01:13:50Z</time></trkpt>
<trkpt lat="31.65704" lon="34.96222">
<ele>330</ele>
<time>2021-02-10T01:14:26Z</time></trkpt>
<trkpt lat="31.65726" lon="34.96106">
<ele>326</ele>
<time>2021-02-10T01:14:46Z</time></trkpt>
<trkpt lat="31.65723" lon="34.96105">
<ele>326</ele>
<time>2021-02-10T01:14:47Z</time></trkpt>
<trkpt lat="31.65722" lon="34.96105">
<ele>326</ele>
<time>2021-02-10T01:14:47Z</time></trkpt>
<trkpt lat="31.65726" lon="34.96106">
<ele>326</ele>
<time>2021-02-10T01:14:48Z</time></trkpt>
<trkpt lat="31.65751" lon="34.96033">
<ele>323</ele>
<time>2021-02-10T01:15:01Z</time></trkpt>
<trkpt lat="31.65777" lon="34.95986">
<ele>323</ele>
<time>2021-02-10T01:15:11Z</time></trkpt>
<trkpt lat="31.65806" lon="34.95965">
<ele>323</ele>
<time>2021-02-10T01:15:18Z</time></trkpt>
<trkpt lat="31.65934" lon="34.95913">
<ele>323</ele>
<time>2021-02-10T01:15:45Z</time></trkpt>
<trkpt lat="31.65958" lon="34.95889">
<ele>323</ele>
<time>2021-02-10T01:15:51Z</time></trkpt>
<trkpt lat="31.65961" lon="34.95883">
<ele>323</ele>
<time>2021-02-10T01:15:52Z</time></trkpt>
<trkpt lat="31.6596" lon="34.95876">
<ele>323</ele>
<time>2021-02-10T01:15:53Z</time></trkpt>
<trkpt lat="31.65956" lon="34.95868">
<ele>323</ele>
<time>2021-02-10T01:15:55Z</time></trkpt>
<trkpt lat="31.65932" lon="34.95838">
<ele>321</ele>
<time>2021-02-10T01:16:02Z</time></trkpt>
<trkpt lat="31.65859" lon="34.95763">
<ele>318</ele>
<time>2021-02-10T01:16:21Z</time></trkpt>
<trkpt lat="31.6584" lon="34.95697">
<ele>316</ele>
<time>2021-02-10T01:16:33Z</time></trkpt>
<trkpt lat="31.65842" lon="34.95633">
<ele>315</ele>
<time>2021-02-10T01:16:44Z</time></trkpt>
<trkpt lat="31.65908" lon="34.95486">
<ele>314</ele>
<time>2021-02-10T01:17:13Z</time></trkpt>
<trkpt lat="31.65909" lon="34.95393">
<ele>311</ele>
<time>2021-02-10T01:17:28Z</time></trkpt>
<trkpt lat="31.65922" lon="34.95284">
<ele>308</ele>
<time>2021-02-10T01:17:47Z</time></trkpt>
<trkpt lat="31.65966" lon="34.95137">
<ele>305</ele>
<time>2021-02-10T01:18:14Z</time></trkpt>
<trkpt lat="31.66011" lon="34.95076">
<ele>301</ele>
<time>2021-02-10T01:18:28Z</time></trkpt>
<trkpt lat="31.6604" lon="34.95067">
<ele>301</ele>
<time>2021-02-10T01:18:34Z</time></trkpt>
<trkpt lat="31.66102" lon="34.95085">
<ele>303</ele>
<time>2021-02-10T01:18:46Z</time></trkpt>
<trkpt lat="31.6613" lon="34.95088">
<ele>303</ele>
<time>2021-02-10T01:18:52Z</time></trkpt>
<trkpt lat="31.66129" lon="34.95088">
<ele>303</ele>
<time>2021-02-10T01:18:52Z</time></trkpt>
<trkpt lat="31.66131" lon="34.95088">
<ele>304</ele>
<time>2021-02-10T01:18:53Z</time></trkpt>
<trkpt lat="31.66165" lon="34.95071">
<ele>303</ele>
<time>2021-02-10T01:19:00Z</time></trkpt>
<trkpt lat="31.66202" lon="34.95037">
<ele>306</ele>
<time>2021-02-10T01:19:09Z</time></trkpt>
<trkpt lat="31.66219" lon="34.94998">
<ele>305</ele>
<time>2021-02-10T01:19:17Z</time></trkpt>
<trkpt lat="31.66222" lon="34.94977">
<ele>304</ele>
<time>2021-02-10T01:19:20Z</time></trkpt>
<trkpt lat="31.66236" lon="34.94862">
<ele>296</ele>
<time>2021-02-10T01:19:40Z</time></trkpt>
<trkpt lat="31.6625" lon="34.94829">
<ele>294</ele>
<time>2021-02-10T01:19:47Z</time></trkpt>
<trkpt lat="31.66272" lon="34.94791">
<ele>293</ele>
<time>2021-02-10T01:19:54Z</time></trkpt>
<trkpt lat="31.66287" lon="34.94774">
<ele>292</ele>
<time>2021-02-10T01:19:59Z</time></trkpt>
<trkpt lat="31.66327" lon="34.94741">
<ele>290</ele>
<time>2021-02-10T01:20:08Z</time></trkpt>
<trkpt lat="31.66342" lon="34.94737">
<ele>290</ele>
<time>2021-02-10T01:20:11Z</time></trkpt>
<trkpt lat="31.66389" lon="34.94733">
<ele>293</ele>
<time>2021-02-10T01:20:21Z</time></trkpt>
<trkpt lat="31.66398" lon="34.94728">
<ele>293</ele>
<time>2021-02-10T01:20:23Z</time></trkpt>
<trkpt lat="31.66404" lon="34.94718">
<ele>292</ele>
<time>2021-02-10T01:20:25Z</time></trkpt>
<trkpt lat="31.66423" lon="34.94643">
<ele>288</ele>
<time>2021-02-10T01:20:38Z</time></trkpt>
<trkpt lat="31.66431" lon="34.94629">
<ele>288</ele>
<time>2021-02-10T01:20:41Z</time></trkpt>
<trkpt lat="31.66445" lon="34.94616">
<ele>288</ele>
<time>2021-02-10T01:20:45Z</time></trkpt>
<trkpt lat="31.66488" lon="34.94595">
<ele>287</ele>
<time>2021-02-10T01:20:54Z</time></trkpt>
<trkpt lat="31.66541" lon="34.94593">
<ele>286</ele>
<time>2021-02-10T01:21:05Z</time></trkpt>
<trkpt lat="31.66587" lon="34.94585">
<ele>284</ele>
<time>2021-02-10T01:21:14Z</time></trkpt>
<trkpt lat="31.66636" lon="34.94569">
<ele>284</ele>
<time>2021-02-10T01:21:24Z</time></trkpt>
<trkpt lat="31.66744" lon="34.94548">
<ele>284</ele>
<time>2021-02-10T01:21:46Z</time></trkpt>
<trkpt lat="31.66795" lon="34.9456">
<ele>284</ele>
<time>2021-02-10T01:21:57Z</time></trkpt>
<trkpt lat="31.66814" lon="34.94562">
<ele>284</ele>
<time>2021-02-10T01:22:00Z</time></trkpt>
<trkpt lat="31.66826" lon="34.94568">
<ele>284</ele>
<time>2021-02-10T01:22:03Z</time></trkpt>
<trkpt lat="31.66843" lon="34.94584">
<ele>285</ele>
<time>2021-02-10T01:22:07Z</time></trkpt>
<trkpt lat="31.6688" lon="34.94517">
<ele>285</ele>
<time>2021-02-10T01:22:21Z</time></trkpt>
<trkpt lat="31.66911" lon="34.94457">
<ele>284</ele>
<time>2021-02-10T01:22:33Z</time></trkpt>
<trkpt lat="31.67009" lon="34.94321">
<ele>278</ele>
<time>2021-02-10T01:23:03Z</time></trkpt>
<trkpt lat="31.66931" lon="34.94277">
<ele>275</ele>
<time>2021-02-10T01:23:21Z</time></trkpt>
<trkpt lat="31.66915" lon="34.94249">
<ele>275</ele>
<time>2021-02-10T01:23:26Z</time></trkpt>
<trkpt lat="31.66914" lon="34.94249">
<ele>275</ele>
<time>2021-02-10T01:23:27Z</time></trkpt>
<trkpt lat="31.66914" lon="34.9425">
<ele>275</ele>
<time>2021-02-10T01:23:27Z</time></trkpt>
<trkpt lat="31.66926" lon="34.94238">
<ele>275</ele>
<time>2021-02-10T01:23:30Z</time></trkpt>
<trkpt lat="31.66921" lon="34.9423">
<ele>276</ele>
<time>2021-02-10T01:23:32Z</time></trkpt>
<trkpt lat="31.669211" lon="34.942299">
<ele>276</ele>
<time>2021-02-10T01:23:32Z</time></trkpt>
<trkpt lat="31.66925" lon="34.942369">
<ele>275</ele>
<time>2021-02-10T01:23:33Z</time></trkpt>
<trkpt lat="31.670691" lon="34.940969">
<ele>275</ele>
<time>2021-02-10T01:24:11Z</time></trkpt>
<trkpt lat="31.671745" lon="34.939992">
<ele>272</ele>
<time>2021-02-10T01:24:38Z</time></trkpt>
<trkpt lat="31.671981" lon="34.939695">
<ele>273</ele>
<time>2021-02-10T01:24:44Z</time></trkpt>
<trkpt lat="31.672052" lon="34.939579">
<ele>273</ele>
<time>2021-02-10T01:24:47Z</time></trkpt>
<trkpt lat="31.672118" lon="34.939237">
<ele>274</ele>
<time>2021-02-10T01:24:53Z</time></trkpt>
<trkpt lat="31.67207" lon="34.93882">
<ele>275</ele>
<time>2021-02-10T01:25:00Z</time></trkpt>
<trkpt lat="31.671643" lon="34.937052">
<ele>272</ele>
<time>2021-02-10T01:25:31Z</time></trkpt>
<trkpt lat="31.671572" lon="34.936372">
<ele>270</ele>
<time>2021-02-10T01:25:43Z</time></trkpt>
<trkpt lat="31.671614" lon="34.936135">
<ele>269</ele>
<time>2021-02-10T01:25:47Z</time></trkpt>
<trkpt lat="31.67168" lon="34.935937">
<ele>268</ele>
<time>2021-02-10T01:25:51Z</time></trkpt>
<trkpt lat="31.671793" lon="34.935719">
<ele>269</ele>
<time>2021-02-10T01:25:55Z</time></trkpt>
<trkpt lat="31.671965" lon="34.935596">
<ele>270</ele>
<time>2021-02-10T01:25:59Z</time></trkpt>
<trkpt lat="31.672074" lon="34.935636">
<ele>270</ele>
<time>2021-02-10T01:26:02Z</time></trkpt>
<trkpt lat="31.672187" lon="34.935612">
<ele>271</ele>
<time>2021-02-10T01:26:04Z</time></trkpt>
<trkpt lat="31.672232" lon="34.935582">
<ele>271</ele>
<time>2021-02-10T01:26:05Z</time></trkpt>
<trkpt lat="31.672301" lon="34.935492">
<ele>272</ele>
<time>2021-02-10T01:26:07Z</time></trkpt>
<trkpt lat="31.672326" lon="34.935416">
<ele>272</ele>
<time>2021-02-10T01:26:08Z</time></trkpt>
<trkpt lat="31.672332" lon="34.935335">
<ele>272</ele>
<time>2021-02-10T01:26:10Z</time></trkpt>
<trkpt lat="31.672318" lon="34.935256">
<ele>272</ele>
<time>2021-02-10T01:26:11Z</time></trkpt>
<trkpt lat="31.672265" lon="34.935159">
<ele>272</ele>
<time>2021-02-10T01:26:13Z</time></trkpt>
<trkpt lat="31.672265" lon="34.935159">
<ele>272</ele>
<time>2021-02-10T01:26:13Z</time></trkpt>
<trkpt lat="31.672189" lon="34.935092">
<ele>272</ele>
<time>2021-02-10T01:26:15Z</time></trkpt>
<trkpt lat="31.672552" lon="34.934684">
<ele>278</ele>
<time>2021-02-10T01:26:25Z</time></trkpt>
<trkpt lat="31.672647" lon="34.934372">
<ele>281</ele>
<time>2021-02-10T01:26:31Z</time></trkpt>
<trkpt lat="31.672793" lon="34.934109">
<ele>284</ele>
<time>2021-02-10T01:26:36Z</time></trkpt>
<trkpt lat="31.673164" lon="34.933776">
<ele>290</ele>
<time>2021-02-10T01:26:45Z</time></trkpt>
<trkpt lat="31.67401" lon="34.932865">
<ele>296</ele>
<time>2021-02-10T01:27:08Z</time></trkpt>
<trkpt lat="31.67401" lon="34.932865">
<ele>296</ele>
<time>2021-02-10T01:27:08Z</time></trkpt>
<trkpt lat="31.67483" lon="34.931907">
<ele>301</ele>
<time>2021-02-10T01:27:32Z</time></trkpt>
<trkpt lat="31.67503" lon="34.931567">
<ele>302</ele>
<time>2021-02-10T01:27:39Z</time></trkpt>
<trkpt lat="31.67503" lon="34.931371">
<ele>304</ele>
<time>2021-02-10T01:27:42Z</time></trkpt>
<trkpt lat="31.675115" lon="34.930993">
<ele>307</ele>
<time>2021-02-10T01:27:49Z</time></trkpt>
<trkpt lat="31.67534" lon="34.930799">
<ele>307</ele>
<time>2021-02-10T01:27:54Z</time></trkpt>
<trkpt lat="31.675655" lon="34.930637">
<ele>307</ele>
<time>2021-02-10T01:28:01Z</time></trkpt>
<trkpt lat="31.675945" lon="34.930433">
<ele>309</ele>
<time>2021-02-10T01:28:08Z</time></trkpt>
<trkpt lat="31.676237" lon="34.930465">
<ele>310</ele>
<time>2021-02-10T01:28:14Z</time></trkpt>
<trkpt lat="31.676536" lon="34.930476">
<ele>311</ele>
<time>2021-02-10T01:28:20Z</time></trkpt>
<trkpt lat="31.676866" lon="34.930452">
<ele>313</ele>
<time>2021-02-10T01:28:26Z</time></trkpt>
<trkpt lat="31.677108" lon="34.930398">
<ele>315</ele>
<time>2021-02-10T01:28:31Z</time></trkpt>
<trkpt lat="31.677307" lon="34.930448">
<ele>316</ele>
<time>2021-02-10T01:28:35Z</time></trkpt>
<trkpt lat="31.677493" lon="34.930615">
<ele>316</ele>
<time>2021-02-10T01:28:40Z</time></trkpt>
<trkpt lat="31.677601" lon="34.930605">
<ele>316</ele>
<time>2021-02-10T01:28:42Z</time></trkpt>
<trkpt lat="31.677606" lon="34.930235">
<ele>318</ele>
<time>2021-02-10T01:28:49Z</time></trkpt>
<trkpt lat="31.677653" lon="34.930237">
<ele>318</ele>
<time>2021-02-10T01:28:49Z</time></trkpt>
</trkseg>
</trk>
</gpx>